FDX93 PANC-RJBB
Flight info
| Callsign | FDX93 |
|---|---|
| Flight time | 8h 15m |
| Altitude | 34000 |
| Route | NODLE R220 NOSHO/N0488F350 R220 NANDY/N0482F360 R220 NRKEY/N0480F370 R220 NUBDA/N0472F380 R220 NODAN/N0472F390 R220 NANAC/N0473F380 R220 IXE Y88 NAKTU Y12 KEC Y43 KISEI Y46 EVERT |
| Aircraft | MD11/H-SDE1E2E3FGHIJ2J3J4J5M1RWXY/LB1D1 |
Departure
| Time | 2026-04-26 18:32 |
|---|---|
| Airport | Ted Stevens Anchorage International Airport (PANC) |
Arrival
| Time | 2026-04-27 02:48 |
|---|---|
| Airport | Kansai International Airport (RJBB) |
| Time | Latitude | Longitude | Altitude | Speed | Heading |
|---|---|---|---|---|---|
| 2026-04-26 18:11 | 61.18839 | -149.99874 | 122 ft | 0 kts | 75° |
| 2026-04-26 18:22 | 61.18835 | -149.99912 | 118 ft | 4 kts | 78° |
| 2026-04-26 18:23 | 61.18829 | -149.99964 | 123 ft | 4 kts | 83° |
| 2026-04-26 18:23 | 61.18828 | -150.00000 | 122 ft | 4 kts | 135° |
| 2026-04-26 18:23 | 61.18842 | -150.00018 | 119 ft | 3 kts | 165° |
| 2026-04-26 18:23 | 61.18864 | -150.00030 | 120 ft | 1 kts | 165° |
| 2026-04-26 18:24 | 61.18865 | -150.00031 | 119 ft | 0 kts | 165° |
| 2026-04-26 18:26 | 61.18844 | -150.00019 | 119 ft | 8 kts | 165° |
| 2026-04-26 18:26 | 61.18781 | -149.99987 | 123 ft | 9 kts | 169° |
| 2026-04-26 18:26 | 61.18745 | -150.00019 | 121 ft | 3 kts | 222° |
| 2026-04-26 18:26 | 61.18742 | -150.00026 | 122 ft | 0 kts | 225° |
| 2026-04-26 18:27 | 61.18735 | -150.00042 | 121 ft | 1 kts | 227° |
| 2026-04-26 18:27 | 61.18727 | -150.00063 | 123 ft | 4 kts | 236° |
| 2026-04-26 18:27 | 61.18714 | -150.00147 | 128 ft | 9 kts | 254° |
| 2026-04-26 18:27 | 61.18690 | -150.00303 | 130 ft | 13 kts | 242° |
| 2026-04-26 18:28 | 61.18594 | -150.00330 | 130 ft | 19 kts | 166° |
| 2026-04-26 18:28 | 61.18449 | -150.00248 | 132 ft | 23 kts | 165° |
| 2026-04-26 18:28 | 61.18291 | -150.00159 | 128 ft | 23 kts | 164° |
| 2026-04-26 18:28 | 61.18134 | -150.00071 | 123 ft | 23 kts | 165° |
| 2026-04-26 18:29 | 61.17982 | -149.99986 | 122 ft | 22 kts | 165° |
| 2026-04-26 18:29 | 61.17839 | -149.99906 | 121 ft | 20 kts | 165° |
| 2026-04-26 18:29 | 61.17717 | -149.99835 | 124 ft | 17 kts | 164° |
| 2026-04-26 18:29 | 61.17610 | -149.99778 | 122 ft | 15 kts | 167° |
| 2026-04-26 18:30 | 61.17504 | -149.99721 | 124 ft | 16 kts | 165° |
| 2026-04-26 18:30 | 61.17392 | -149.99656 | 126 ft | 17 kts | 164° |
| 2026-04-26 18:30 | 61.17276 | -149.99588 | 126 ft | 18 kts | 164° |
| 2026-04-26 18:30 | 61.17162 | -149.99547 | 127 ft | 13 kts | 193° |
| 2026-04-26 18:31 | 61.17128 | -149.99633 | 134 ft | 6 kts | 252° |
| 2026-04-26 18:31 | 61.17125 | -149.99718 | 135 ft | 6 kts | 268° |
| 2026-04-26 18:31 | 61.17130 | -149.99832 | 137 ft | 11 kts | 296° |
| 2026-04-26 18:31 | 61.17302 | -149.99960 | 136 ft | 62 kts | 345° |
| 2026-04-26 18:32 | 61.17999 | -150.00350 | 128 ft | 142 kts | 345° |
| 2026-04-26 18:32 | 61.19142 | -150.01001 | 213 ft | 190 kts | 343° |
| 2026-04-26 18:32 | 61.20381 | -150.01751 | 1108 ft | 181 kts | 346° |
| 2026-04-26 18:32 | 61.21641 | -150.02461 | 1864 ft | 192 kts | 345° |
| 2026-04-26 18:33 | 61.22914 | -150.03195 | 2698 ft | 196 kts | 345° |
| 2026-04-26 18:33 | 61.24153 | -150.03911 | 3416 ft | 195 kts | 345° |
| 2026-04-26 18:33 | 61.25570 | -150.04729 | 3832 ft | 220 kts | 345° |
| 2026-04-26 18:33 | 61.27041 | -150.05582 | 4581 ft | 218 kts | 345° |
| 2026-04-26 18:34 | 61.28513 | -150.06400 | 5141 ft | 221 kts | 351° |
| 2026-04-26 18:34 | 61.29997 | -150.06153 | 5758 ft | 219 kts | 26° |
| 2026-04-26 18:34 | 61.31114 | -150.04438 | 6434 ft | 215 kts | 57° |
| 2026-04-26 18:34 | 61.31633 | -150.01641 | 7040 ft | 205 kts | 92° |
| 2026-04-26 18:35 | 61.31304 | -149.98811 | 7589 ft | 203 kts | 126° |
| 2026-04-26 18:35 | 61.30252 | -149.96946 | 8176 ft | 203 kts | 159° |
| 2026-04-26 18:35 | 61.28906 | -149.96480 | 8716 ft | 206 kts | 175° |
| 2026-04-26 18:35 | 61.27420 | -149.96294 | 9114 ft | 226 kts | 175° |
| 2026-04-26 18:36 | 61.25764 | -149.96074 | 9353 ft | 248 kts | 175° |
| 2026-04-26 18:36 | 61.24015 | -149.95842 | 9979 ft | 255 kts | 175° |
| 2026-04-26 18:36 | 61.22319 | -149.95621 | 10603 ft | 258 kts | 176° |
| 2026-04-26 18:36 | 61.20510 | -149.95374 | 11197 ft | 263 kts | 176° |
| 2026-04-26 18:37 | 61.18672 | -149.94938 | 11807 ft | 268 kts | 174° |
| 2026-04-26 18:37 | 61.16778 | -149.95086 | 12052 ft | 286 kts | 197° |
| 2026-04-26 18:37 | 61.14947 | -149.96832 | 12247 ft | 304 kts | 210° |
| 2026-04-26 18:37 | 61.13031 | -149.99181 | 12404 ft | 327 kts | 211° |
| 2026-04-26 18:38 | 61.11006 | -150.01683 | 12520 ft | 349 kts | 211° |
| 2026-04-26 18:38 | 61.08904 | -150.04180 | 13167 ft | 354 kts | 210° |
| 2026-04-26 18:38 | 61.06837 | -150.06553 | 13835 ft | 357 kts | 210° |
| 2026-04-26 18:38 | 61.04637 | -150.09009 | 14454 ft | 361 kts | 209° |
| 2026-04-26 18:39 | 61.02488 | -150.11364 | 15084 ft | 364 kts | 209° |
| 2026-04-26 18:39 | 61.00242 | -150.13797 | 15726 ft | 367 kts | 209° |
| 2026-04-26 18:39 | 60.98060 | -150.16143 | 16352 ft | 370 kts | 209° |
| 2026-04-26 18:39 | 60.95768 | -150.18596 | 16996 ft | 373 kts | 209° |
| 2026-04-26 18:40 | 60.93455 | -150.21066 | 17623 ft | 376 kts | 209° |
| 2026-04-26 18:40 | 60.91128 | -150.23545 | 18259 ft | 379 kts | 209° |
| 2026-04-26 18:40 | 60.88806 | -150.26138 | 18771 ft | 381 kts | 213° |
| 2026-04-26 18:40 | 60.86682 | -150.29371 | 19329 ft | 381 kts | 224° |
| 2026-04-26 18:41 | 60.84972 | -150.33532 | 19870 ft | 382 kts | 238° |
| 2026-04-26 18:41 | 60.83839 | -150.38475 | 20393 ft | 385 kts | 252° |
| 2026-04-26 18:41 | 60.83358 | -150.43882 | 20902 ft | 390 kts | 266° |
| 2026-04-26 18:41 | 60.83556 | -150.49467 | 21412 ft | 397 kts | 279° |
| 2026-04-26 18:42 | 60.84436 | -150.54869 | 21907 ft | 405 kts | 292° |
| 2026-04-26 18:42 | 60.85804 | -150.59882 | 22345 ft | 411 kts | 298° |
| 2026-04-26 18:42 | 60.87387 | -150.64789 | 22834 ft | 415 kts | 300° |
| 2026-04-26 18:42 | 60.88943 | -150.69450 | 23292 ft | 418 kts | 300° |
| 2026-04-26 18:43 | 60.90579 | -150.74419 | 23742 ft | 421 kts | 300° |
| 2026-04-26 18:43 | 60.92194 | -150.79444 | 24159 ft | 423 kts | 299° |
| 2026-04-26 18:43 | 60.93793 | -150.84528 | 24565 ft | 425 kts | 298° |
| 2026-04-26 18:43 | 60.95384 | -150.89662 | 24972 ft | 427 kts | 298° |
| 2026-04-26 18:44 | 60.96972 | -150.94838 | 25374 ft | 429 kts | 298° |
| 2026-04-26 18:44 | 60.98563 | -151.00049 | 25765 ft | 431 kts | 297° |
| 2026-04-26 18:44 | 61.00105 | -151.05118 | 26151 ft | 433 kts | 297° |
| 2026-04-26 18:44 | 61.01705 | -151.10390 | 26538 ft | 435 kts | 297° |
| 2026-04-26 18:45 | 61.03312 | -151.15697 | 26916 ft | 438 kts | 297° |
| 2026-04-26 18:45 | 61.04926 | -151.21035 | 27298 ft | 440 kts | 297° |
| 2026-04-26 18:45 | 61.06550 | -151.26420 | 27676 ft | 442 kts | 297° |
| 2026-04-26 18:45 | 61.08176 | -151.31821 | 28034 ft | 445 kts | 297° |
| 2026-04-26 18:46 | 61.09812 | -151.37270 | 28393 ft | 447 kts | 297° |
| 2026-04-26 18:46 | 61.11431 | -151.42673 | 28737 ft | 449 kts | 297° |
| 2026-04-26 18:46 | 61.12991 | -151.47891 | 29048 ft | 451 kts | 297° |
| 2026-04-26 18:46 | 61.14645 | -151.53435 | 29402 ft | 454 kts | 297° |
| 2026-04-26 18:47 | 61.16307 | -151.59022 | 29735 ft | 456 kts | 296° |
| 2026-04-26 18:47 | 61.17971 | -151.64627 | 30065 ft | 458 kts | 296° |
| 2026-04-26 18:47 | 61.19639 | -151.70262 | 30368 ft | 460 kts | 296° |
| 2026-04-26 18:47 | 61.21310 | -151.75912 | 30795 ft | 459 kts | 296° |
| 2026-04-26 18:48 | 61.22978 | -151.81564 | 31257 ft | 457 kts | 296° |
| 2026-04-26 18:48 | 61.24624 | -151.87158 | 31716 ft | 455 kts | 296° |
| 2026-04-26 18:48 | 61.26245 | -151.92776 | 32161 ft | 451 kts | 294° |
| 2026-04-26 18:48 | 61.27602 | -151.98586 | 32579 ft | 443 kts | 285° |
| 2026-04-26 18:49 | 61.28430 | -152.04678 | 32973 ft | 434 kts | 275° |
| 2026-04-26 18:49 | 61.28714 | -152.10874 | 33384 ft | 427 kts | 268° |
| 2026-04-26 18:49 | 61.28729 | -152.17010 | 33792 ft | 422 kts | 265° |
| 2026-04-26 18:49 | 61.28668 | -152.23101 | 33990 ft | 424 kts | 265° |
| 2026-04-26 18:50 | 61.28570 | -152.35419 | 34016 ft | 431 kts | 266° |
| 2026-04-26 18:50 | 61.28571 | -152.47842 | 34015 ft | 428 kts | 266° |
| 2026-04-26 18:51 | 61.28604 | -152.60235 | 34004 ft | 429 kts | 266° |
| 2026-04-26 18:51 | 61.28635 | -152.72674 | 33987 ft | 430 kts | 266° |
| 2026-04-26 18:52 | 61.28651 | -152.83095 | 33984 ft | 431 kts | 266° |
| 2026-04-26 18:52 | 61.28659 | -152.97687 | 33996 ft | 432 kts | 266° |
| 2026-04-26 18:53 | 61.28654 | -153.08085 | 33978 ft | 433 kts | 265° |
| 2026-04-26 18:53 | 61.28635 | -153.22628 | 33974 ft | 433 kts | 265° |
| 2026-04-26 18:54 | 61.28611 | -153.33141 | 33964 ft | 434 kts | 265° |
| 2026-04-26 18:54 | 61.28571 | -153.45687 | 33952 ft | 435 kts | 265° |
| 2026-04-26 18:55 | 61.28511 | -153.60316 | 33934 ft | 435 kts | 265° |
| 2026-04-26 18:55 | 61.28447 | -153.72936 | 33924 ft | 436 kts | 265° |
| 2026-04-26 18:56 | 61.28358 | -153.83410 | 33911 ft | 437 kts | 264° |
| 2026-04-26 18:56 | 61.28203 | -153.96054 | 33903 ft | 437 kts | 264° |
| 2026-04-26 18:57 | 61.28095 | -154.06652 | 33889 ft | 438 kts | 264° |
| 2026-04-26 18:57 | 61.27961 | -154.21412 | 33870 ft | 439 kts | 264° |
| 2026-04-26 18:58 | 61.27839 | -154.34114 | 33859 ft | 440 kts | 264° |
| 2026-04-26 18:58 | 61.27706 | -154.46843 | 33861 ft | 441 kts | 264° |
| 2026-04-26 18:59 | 61.27560 | -154.59585 | 33857 ft | 441 kts | 263° |
| 2026-04-26 18:59 | 61.27400 | -154.72345 | 33860 ft | 442 kts | 263° |
| 2026-04-26 19:00 | 61.27230 | -154.85129 | 33858 ft | 443 kts | 263° |
| 2026-04-26 19:00 | 61.27045 | -154.97930 | 33851 ft | 443 kts | 263° |
| 2026-04-26 19:01 | 61.26849 | -155.10749 | 33841 ft | 444 kts | 263° |
| 2026-04-26 19:01 | 61.26641 | -155.23587 | 33834 ft | 445 kts | 263° |
| 2026-04-26 19:02 | 61.26420 | -155.36427 | 33827 ft | 445 kts | 262° |
| 2026-04-26 19:02 | 61.26227 | -155.47114 | 33825 ft | 445 kts | 262° |
| 2026-04-26 19:03 | 61.25881 | -155.62058 | 33824 ft | 446 kts | 262° |
| 2026-04-26 19:03 | 61.25571 | -155.74944 | 33822 ft | 447 kts | 262° |
| 2026-04-26 19:04 | 61.25285 | -155.87938 | 33825 ft | 447 kts | 262° |
| 2026-04-26 19:04 | 61.25038 | -156.00855 | 33828 ft | 449 kts | 263° |
| 2026-04-26 19:05 | 61.25097 | -156.20390 | 33835 ft | 452 kts | 265° |
| 2026-04-26 19:06 | 61.25191 | -156.33450 | 33851 ft | 453 kts | 265° |
| 2026-04-26 19:06 | 61.25260 | -156.46518 | 33848 ft | 453 kts | 265° |
| 2026-04-26 19:07 | 61.25310 | -156.59634 | 33843 ft | 454 kts | 264° |
| 2026-04-26 19:07 | 61.25344 | -156.72666 | 33842 ft | 455 kts | 264° |
| 2026-04-26 19:08 | 61.25367 | -156.85816 | 33844 ft | 456 kts | 264° |
| 2026-04-26 19:08 | 61.25377 | -156.98988 | 33838 ft | 456 kts | 264° |
| 2026-04-26 19:09 | 61.25374 | -157.12170 | 33836 ft | 457 kts | 264° |
| 2026-04-26 19:09 | 61.25358 | -157.25392 | 33835 ft | 458 kts | 264° |
| 2026-04-26 19:10 | 61.25329 | -157.38628 | 33837 ft | 459 kts | 264° |
| 2026-04-26 19:10 | 61.25288 | -157.51902 | 33826 ft | 460 kts | 263° |
| 2026-04-26 19:11 | 61.25232 | -157.65192 | 33815 ft | 461 kts | 263° |
| 2026-04-26 19:11 | 61.25123 | -157.78397 | 33808 ft | 461 kts | 262° |
| 2026-04-26 19:12 | 61.24979 | -157.91702 | 33804 ft | 462 kts | 263° |
| 2026-04-26 19:12 | 61.24864 | -158.05057 | 33790 ft | 462 kts | 263° |
| 2026-04-26 19:13 | 61.24755 | -158.18422 | 33774 ft | 463 kts | 263° |
| 2026-04-26 19:13 | 61.24636 | -158.31815 | 33771 ft | 464 kts | 263° |
| 2026-04-26 19:14 | 61.24503 | -158.45207 | 33757 ft | 464 kts | 263° |
| 2026-04-26 19:14 | 61.24354 | -158.58644 | 33747 ft | 465 kts | 262° |
| 2026-04-26 19:15 | 61.24194 | -158.72065 | 33733 ft | 466 kts | 262° |
| 2026-04-26 19:15 | 61.24020 | -158.85506 | 33727 ft | 466 kts | 262° |
| 2026-04-26 19:16 | 61.23830 | -158.98983 | 33717 ft | 467 kts | 262° |
| 2026-04-26 19:16 | 61.23629 | -159.12445 | 33710 ft | 467 kts | 262° |
| 2026-04-26 19:17 | 61.23415 | -159.25861 | 33706 ft | 468 kts | 262° |
| 2026-04-26 19:17 | 61.23184 | -159.39464 | 33695 ft | 469 kts | 262° |
| 2026-04-26 19:18 | 61.22887 | -159.52966 | 33691 ft | 468 kts | 261° |
| 2026-04-26 19:18 | 61.22575 | -159.66399 | 33682 ft | 469 kts | 261° |
| 2026-04-26 19:19 | 61.22288 | -159.79927 | 33675 ft | 470 kts | 262° |
| 2026-04-26 19:19 | 61.22004 | -159.93484 | 33665 ft | 471 kts | 261° |
| 2026-04-26 19:20 | 61.21707 | -160.07071 | 33636 ft | 472 kts | 261° |
| 2026-04-26 19:20 | 61.21396 | -160.20663 | 33637 ft | 472 kts | 261° |
| 2026-04-26 19:21 | 61.21069 | -160.34280 | 33633 ft | 473 kts | 261° |
| 2026-04-26 19:21 | 61.20729 | -160.47890 | 33629 ft | 473 kts | 261° |
| 2026-04-26 19:22 | 61.20375 | -160.61514 | 33625 ft | 473 kts | 261° |
| 2026-04-26 19:22 | 61.20005 | -160.75166 | 33625 ft | 474 kts | 261° |
| 2026-04-26 19:23 | 61.19623 | -160.88817 | 33623 ft | 475 kts | 261° |
| 2026-04-26 19:23 | 61.19225 | -161.02494 | 33622 ft | 475 kts | 260° |
| 2026-04-26 19:24 | 61.18810 | -161.16083 | 33617 ft | 476 kts | 259° |
| 2026-04-26 19:24 | 61.18068 | -161.36591 | 33602 ft | 476 kts | 259° |
| 2026-04-26 19:25 | 61.17674 | -161.48073 | 33607 ft | 477 kts | 260° |
| 2026-04-26 19:25 | 61.17136 | -161.64029 | 33583 ft | 478 kts | 260° |
| 2026-04-26 19:26 | 61.16663 | -161.77768 | 33592 ft | 479 kts | 259° |
| 2026-04-26 19:26 | 61.16173 | -161.91517 | 33590 ft | 479 kts | 259° |
| 2026-04-26 19:27 | 61.15667 | -162.05292 | 33589 ft | 480 kts | 259° |
| 2026-04-26 19:27 | 61.15150 | -162.19001 | 33589 ft | 480 kts | 259° |
| 2026-04-26 19:28 | 61.14615 | -162.32788 | 33582 ft | 481 kts | 259° |
| 2026-04-26 19:28 | 61.14066 | -162.46588 | 33574 ft | 482 kts | 259° |
| 2026-04-26 19:29 | 61.13501 | -162.60415 | 33568 ft | 482 kts | 259° |
| 2026-04-26 19:29 | 61.12922 | -162.74243 | 33562 ft | 483 kts | 258° |
| 2026-04-26 19:30 | 61.12319 | -162.88095 | 33551 ft | 483 kts | 258° |
| 2026-04-26 19:30 | 61.11652 | -162.99532 | 33548 ft | 479 kts | 253° |
| 2026-04-26 19:31 | 61.09702 | -163.15020 | 33537 ft | 475 kts | 247° |
| 2026-04-26 19:31 | 61.07780 | -163.28087 | 33535 ft | 476 kts | 247° |
| 2026-04-26 19:32 | 61.05891 | -163.41213 | 33528 ft | 477 kts | 248° |
| 2026-04-26 19:32 | 61.04038 | -163.54304 | 33525 ft | 478 kts | 248° |
| 2026-04-26 19:33 | 61.02171 | -163.67464 | 33517 ft | 479 kts | 248° |
| 2026-04-26 19:33 | 61.00296 | -163.80566 | 33495 ft | 480 kts | 248° |
| 2026-04-26 19:34 | 60.98395 | -163.93738 | 33496 ft | 480 kts | 248° |
| 2026-04-26 19:34 | 60.96464 | -164.07004 | 33484 ft | 481 kts | 247° |
| 2026-04-26 19:35 | 60.94541 | -164.20114 | 33479 ft | 482 kts | 247° |
| 2026-04-26 19:35 | 60.92590 | -164.33308 | 33474 ft | 483 kts | 247° |
| 2026-04-26 19:36 | 60.91276 | -164.42137 | 33467 ft | 483 kts | 247° |
| 2026-04-26 19:36 | 60.88642 | -164.59698 | 33462 ft | 483 kts | 247° |
| 2026-04-26 19:37 | 60.86596 | -164.72831 | 33457 ft | 484 kts | 246° |
| 2026-04-26 19:37 | 60.84532 | -164.85997 | 33452 ft | 485 kts | 247° |
| 2026-04-26 19:38 | 60.82490 | -164.99174 | 33439 ft | 485 kts | 247° |
| 2026-04-26 19:38 | 60.80433 | -165.12346 | 33441 ft | 486 kts | 247° |
| 2026-04-26 19:39 | 60.78362 | -165.25545 | 33449 ft | 487 kts | 247° |
| 2026-04-26 19:39 | 60.76283 | -165.38730 | 33429 ft | 487 kts | 247° |
| 2026-04-26 19:40 | 60.74203 | -165.51840 | 33424 ft | 488 kts | 247° |
| 2026-04-26 19:40 | 60.72096 | -165.65020 | 33415 ft | 488 kts | 247° |
| 2026-04-26 19:41 | 60.69959 | -165.78284 | 33402 ft | 489 kts | 247° |
| 2026-04-26 19:41 | 60.68544 | -165.87016 | 33396 ft | 489 kts | 247° |
| 2026-04-26 19:42 | 60.65678 | -166.04564 | 33384 ft | 490 kts | 246° |
| 2026-04-26 19:42 | 60.63511 | -166.17722 | 33379 ft | 491 kts | 246° |
| 2026-04-26 19:43 | 60.61323 | -166.30910 | 33374 ft | 491 kts | 246° |
| 2026-04-26 19:43 | 60.59123 | -166.44074 | 33362 ft | 492 kts | 246° |
| 2026-04-26 19:44 | 60.56904 | -166.57257 | 33363 ft | 493 kts | 246° |
| 2026-04-26 19:44 | 60.54620 | -166.70385 | 33353 ft | 492 kts | 245° |
| 2026-04-26 19:45 | 60.52329 | -166.83476 | 33342 ft | 493 kts | 246° |
| 2026-04-26 19:45 | 60.50054 | -166.96618 | 33335 ft | 493 kts | 246° |
| 2026-04-26 19:46 | 60.47782 | -167.09742 | 33330 ft | 494 kts | 246° |
| 2026-04-26 19:46 | 60.45506 | -167.22802 | 33322 ft | 495 kts | 246° |
| 2026-04-26 19:47 | 60.43965 | -167.31589 | 33313 ft | 495 kts | 246° |
| 2026-04-26 19:47 | 60.40880 | -167.49048 | 33313 ft | 495 kts | 246° |
| 2026-04-26 19:48 | 60.38938 | -167.59950 | 33295 ft | 496 kts | 246° |
| 2026-04-26 19:48 | 60.36590 | -167.73051 | 33296 ft | 496 kts | 246° |
| 2026-04-26 19:49 | 60.34230 | -167.86132 | 33288 ft | 496 kts | 245° |
| 2026-04-26 19:49 | 60.31852 | -167.99219 | 33278 ft | 497 kts | 245° |
| 2026-04-26 19:50 | 60.29447 | -168.12269 | 33269 ft | 497 kts | 245° |
| 2026-04-26 19:50 | 60.27056 | -168.25336 | 33261 ft | 497 kts | 246° |
| 2026-04-26 19:51 | 60.24684 | -168.38427 | 33254 ft | 498 kts | 246° |
| 2026-04-26 19:51 | 60.22310 | -168.51509 | 33252 ft | 498 kts | 246° |
| 2026-04-26 19:52 | 60.19935 | -168.64498 | 33242 ft | 498 kts | 246° |
| 2026-04-26 19:52 | 60.17528 | -168.77562 | 33238 ft | 498 kts | 245° |
| 2026-04-26 19:53 | 60.15108 | -168.90612 | 33228 ft | 499 kts | 245° |
| 2026-04-26 19:53 | 60.12673 | -169.03645 | 33223 ft | 499 kts | 245° |
| 2026-04-26 19:54 | 60.10223 | -169.16679 | 33210 ft | 499 kts | 245° |
| 2026-04-26 19:54 | 60.07757 | -169.29704 | 33202 ft | 500 kts | 245° |
| 2026-04-26 19:55 | 60.05280 | -169.42702 | 33198 ft | 500 kts | 245° |
| 2026-04-26 19:55 | 60.02788 | -169.55694 | 33194 ft | 500 kts | 245° |
| 2026-04-26 19:56 | 60.00251 | -169.68550 | 33180 ft | 500 kts | 244° |
| 2026-04-26 19:56 | 59.97682 | -169.81475 | 33176 ft | 501 kts | 245° |
| 2026-04-26 19:57 | 59.95136 | -169.94414 | 33164 ft | 501 kts | 245° |
| 2026-04-26 19:57 | 59.92589 | -170.07356 | 33160 ft | 502 kts | 245° |
| 2026-04-26 19:58 | 59.90025 | -170.20301 | 33152 ft | 502 kts | 245° |
| 2026-04-26 19:58 | 59.87450 | -170.33211 | 33141 ft | 502 kts | 245° |
| 2026-04-26 19:59 | 59.84858 | -170.46121 | 33138 ft | 503 kts | 245° |
| 2026-04-26 19:59 | 59.82250 | -170.59020 | 33129 ft | 503 kts | 245° |
| 2026-04-26 20:00 | 59.79648 | -170.71812 | 33121 ft | 503 kts | 244° |
| 2026-04-26 20:00 | 59.77015 | -170.84674 | 33116 ft | 504 kts | 244° |
| 2026-04-26 20:01 | 59.74361 | -170.97561 | 33109 ft | 504 kts | 244° |
| 2026-04-26 20:01 | 59.71698 | -171.10403 | 33094 ft | 504 kts | 244° |
| 2026-04-26 20:02 | 59.68968 | -171.23196 | 33091 ft | 505 kts | 244° |
| 2026-04-26 20:02 | 59.66692 | -171.33822 | 33082 ft | 505 kts | 244° |
| 2026-04-26 20:03 | 59.63513 | -171.48802 | 33072 ft | 505 kts | 244° |
| 2026-04-26 20:03 | 59.60791 | -171.61617 | 33068 ft | 505 kts | 244° |
| 2026-04-26 20:04 | 59.58076 | -171.74317 | 33061 ft | 506 kts | 244° |
| 2026-04-26 20:04 | 59.55330 | -171.87082 | 33057 ft | 506 kts | 244° |
| 2026-04-26 20:05 | 59.52632 | -171.99916 | 33035 ft | 507 kts | 245° |
| 2026-04-26 20:05 | 59.50002 | -172.12796 | 33025 ft | 508 kts | 245° |
| 2026-04-26 20:06 | 59.47375 | -172.25688 | 33028 ft | 508 kts | 245° |
| 2026-04-26 20:06 | 59.44728 | -172.38573 | 33024 ft | 508 kts | 245° |
| 2026-04-26 20:07 | 59.42066 | -172.51434 | 33018 ft | 508 kts | 245° |
| 2026-04-26 20:07 | 59.39388 | -172.64278 | 33015 ft | 508 kts | 245° |
| 2026-04-26 20:08 | 59.36696 | -172.77113 | 33004 ft | 509 kts | 245° |
| 2026-04-26 20:08 | 59.33992 | -172.89926 | 33003 ft | 509 kts | 244° |
| 2026-04-26 20:09 | 59.31273 | -173.02726 | 32996 ft | 509 kts | 244° |
| 2026-04-26 20:09 | 59.28541 | -173.15515 | 32988 ft | 509 kts | 244° |
| 2026-04-26 20:10 | 59.25794 | -173.28287 | 32986 ft | 510 kts | 244° |
| 2026-04-26 20:10 | 59.23026 | -173.41036 | 32977 ft | 510 kts | 244° |
| 2026-04-26 20:11 | 59.20213 | -173.53637 | 32972 ft | 510 kts | 244° |
| 2026-04-26 20:12 | 59.15994 | -173.72680 | 32965 ft | 510 kts | 244° |
| 2026-04-26 20:12 | 59.13188 | -173.85378 | 32959 ft | 511 kts | 244° |
| 2026-04-26 20:13 | 59.10367 | -173.98079 | 32953 ft | 511 kts | 244° |
| 2026-04-26 20:13 | 59.07533 | -174.10750 | 32949 ft | 511 kts | 244° |
| 2026-04-26 20:14 | 59.04690 | -174.23424 | 32949 ft | 512 kts | 244° |
| 2026-04-26 20:14 | 59.01888 | -174.36151 | 32945 ft | 512 kts | 244° |
| 2026-04-26 20:15 | 58.99116 | -174.48874 | 32949 ft | 513 kts | 245° |
| 2026-04-26 20:15 | 58.96355 | -174.61511 | 32948 ft | 513 kts | 244° |
| 2026-04-26 20:16 | 58.93556 | -174.74229 | 32930 ft | 513 kts | 244° |
| 2026-04-26 20:16 | 58.90743 | -174.86923 | 32927 ft | 513 kts | 244° |
| 2026-04-26 20:17 | 58.87918 | -174.99593 | 32924 ft | 514 kts | 244° |
| 2026-04-26 20:17 | 58.85074 | -175.12270 | 32928 ft | 514 kts | 244° |
| 2026-04-26 20:18 | 58.82221 | -175.24914 | 32927 ft | 514 kts | 244° |
| 2026-04-26 20:18 | 58.79356 | -175.37530 | 32919 ft | 514 kts | 244° |
| 2026-04-26 20:19 | 58.76474 | -175.50146 | 32915 ft | 514 kts | 244° |
| 2026-04-26 20:19 | 58.73582 | -175.62733 | 32914 ft | 514 kts | 244° |
| 2026-04-26 20:20 | 58.70647 | -175.75227 | 32912 ft | 514 kts | 243° |
| 2026-04-26 20:20 | 58.67683 | -175.87741 | 32911 ft | 514 kts | 244° |
| 2026-04-26 20:21 | 58.64761 | -176.00174 | 32913 ft | 514 kts | 244° |
| 2026-04-26 20:21 | 58.61875 | -176.12442 | 32911 ft | 514 kts | 244° |
| 2026-04-26 20:22 | 58.58923 | -176.24935 | 32910 ft | 514 kts | 243° |
| 2026-04-26 20:22 | 58.55957 | -176.37411 | 32909 ft | 514 kts | 243° |
| 2026-04-26 20:23 | 58.52979 | -176.49855 | 32906 ft | 514 kts | 243° |
| 2026-04-26 20:23 | 58.49989 | -176.62278 | 32908 ft | 514 kts | 243° |
| 2026-04-26 20:24 | 58.46985 | -176.74689 | 32908 ft | 514 kts | 243° |
| 2026-04-26 20:24 | 58.43972 | -176.87067 | 32906 ft | 514 kts | 243° |
| 2026-04-26 20:25 | 58.40969 | -176.99334 | 32909 ft | 514 kts | 243° |
| 2026-04-26 20:25 | 58.37921 | -177.11661 | 32911 ft | 514 kts | 243° |
| 2026-04-26 20:26 | 58.34831 | -177.23947 | 32911 ft | 514 kts | 243° |
| 2026-04-26 20:26 | 58.31771 | -177.36213 | 32913 ft | 513 kts | 243° |
| 2026-04-26 20:27 | 58.28718 | -177.48487 | 32917 ft | 513 kts | 243° |
| 2026-04-26 20:27 | 58.25662 | -177.60727 | 32915 ft | 513 kts | 243° |
| 2026-04-26 20:28 | 58.22589 | -177.72957 | 32918 ft | 513 kts | 243° |
| 2026-04-26 20:28 | 58.19483 | -177.85138 | 32919 ft | 513 kts | 243° |
| 2026-04-26 20:29 | 58.16364 | -177.97277 | 32921 ft | 513 kts | 243° |
| 2026-04-26 20:29 | 58.13248 | -178.09408 | 32927 ft | 512 kts | 243° |
| 2026-04-26 20:30 | 58.10124 | -178.21537 | 32931 ft | 513 kts | 243° |
| 2026-04-26 20:30 | 58.07010 | -178.33565 | 32935 ft | 513 kts | 243° |
| 2026-04-26 20:31 | 58.03864 | -178.45647 | 32936 ft | 513 kts | 243° |
| 2026-04-26 20:31 | 58.00706 | -178.57709 | 32944 ft | 513 kts | 243° |
| 2026-04-26 20:32 | 57.97535 | -178.69755 | 32946 ft | 513 kts | 243° |
| 2026-04-26 20:32 | 57.94352 | -178.81783 | 32951 ft | 513 kts | 243° |
| 2026-04-26 20:33 | 57.91157 | -178.93788 | 32950 ft | 513 kts | 243° |
| 2026-04-26 20:33 | 57.87960 | -179.05742 | 33230 ft | 508 kts | 243° |
| 2026-04-26 20:33 | 57.86370 | -179.11662 | 33559 ft | 506 kts | 242° |
| 2026-04-26 20:34 | 57.84783 | -179.17540 | 33859 ft | 506 kts | 242° |
| 2026-04-26 20:34 | 57.81521 | -179.29369 | 33956 ft | 514 kts | 242° |
| 2026-04-26 20:35 | 57.78263 | -179.41208 | 33967 ft | 513 kts | 242° |
| 2026-04-26 20:35 | 57.75008 | -179.53099 | 33972 ft | 512 kts | 242° |
| 2026-04-26 20:36 | 57.71752 | -179.64967 | 33977 ft | 513 kts | 242° |
| 2026-04-26 20:36 | 57.68482 | -179.76819 | 33984 ft | 513 kts | 242° |
| 2026-04-26 20:37 | 57.65198 | -179.88654 | 33996 ft | 513 kts | 242° |
| 2026-04-26 20:37 | 57.61901 | 179.99523 | 34009 ft | 514 kts | 242° |
| 2026-04-26 20:38 | 57.58590 | 179.87713 | 34010 ft | 514 kts | 242° |
| 2026-04-26 20:38 | 57.55268 | 179.75926 | 34009 ft | 514 kts | 242° |
| 2026-04-26 20:39 | 57.51931 | 179.64145 | 34018 ft | 514 kts | 242° |
| 2026-04-26 20:39 | 57.48584 | 179.52388 | 34023 ft | 514 kts | 242° |
| 2026-04-26 20:40 | 57.45208 | 179.40680 | 34034 ft | 514 kts | 241° |
| 2026-04-26 20:40 | 57.41799 | 179.29048 | 34039 ft | 513 kts | 241° |
| 2026-04-26 20:41 | 57.38412 | 179.17416 | 34047 ft | 512 kts | 242° |
| 2026-04-26 20:41 | 57.35056 | 179.05871 | 34056 ft | 512 kts | 242° |
| 2026-04-26 20:42 | 57.31676 | 178.94285 | 34068 ft | 512 kts | 242° |
| 2026-04-26 20:42 | 57.28287 | 178.82733 | 34073 ft | 511 kts | 242° |
| 2026-04-26 20:43 | 57.24883 | 178.71192 | 34082 ft | 511 kts | 242° |
| 2026-04-26 20:43 | 57.21476 | 178.59694 | 34093 ft | 511 kts | 242° |
| 2026-04-26 20:44 | 57.18058 | 178.48219 | 34099 ft | 509 kts | 242° |
| 2026-04-26 20:44 | 57.14650 | 178.36834 | 34116 ft | 510 kts | 241° |
| 2026-04-26 20:45 | 57.11214 | 178.25410 | 34125 ft | 510 kts | 241° |
| 2026-04-26 20:45 | 57.07773 | 178.14026 | 34129 ft | 508 kts | 241° |
| 2026-04-26 20:46 | 57.04292 | 178.02716 | 34141 ft | 508 kts | 241° |
| 2026-04-26 20:46 | 57.00800 | 177.91442 | 34157 ft | 508 kts | 241° |
| 2026-04-26 20:47 | 56.97912 | 177.82066 | 34155 ft | 508 kts | 241° |
| 2026-04-26 20:47 | 56.94444 | 177.70802 | 34179 ft | 508 kts | 241° |
| 2026-04-26 20:48 | 56.90968 | 177.59559 | 34184 ft | 507 kts | 241° |
| 2026-04-26 20:48 | 56.87482 | 177.48343 | 34193 ft | 506 kts | 241° |
| 2026-04-26 20:49 | 56.83986 | 177.37152 | 34206 ft | 507 kts | 241° |
| 2026-04-26 20:49 | 56.80487 | 177.25999 | 34213 ft | 506 kts | 241° |
| 2026-04-26 20:50 | 56.76973 | 177.14857 | 34227 ft | 506 kts | 241° |
| 2026-04-26 20:50 | 56.73482 | 177.03832 | 34239 ft | 506 kts | 241° |
| 2026-04-26 20:51 | 56.69963 | 176.92778 | 34239 ft | 506 kts | 241° |
| 2026-04-26 20:51 | 56.66451 | 176.81792 | 34256 ft | 505 kts | 240° |
| 2026-04-26 20:52 | 56.62872 | 176.70791 | 34267 ft | 506 kts | 240° |
| 2026-04-26 20:52 | 56.59284 | 176.59831 | 34280 ft | 505 kts | 240° |
| 2026-04-26 20:53 | 56.55714 | 176.48866 | 34288 ft | 505 kts | 240° |
| 2026-04-26 20:53 | 56.52144 | 176.37902 | 34300 ft | 505 kts | 240° |
| 2026-04-26 20:54 | 56.48569 | 176.26968 | 34311 ft | 504 kts | 240° |
| 2026-04-26 20:54 | 56.44989 | 176.16076 | 34319 ft | 504 kts | 240° |
| 2026-04-26 20:55 | 56.41397 | 176.05199 | 34332 ft | 504 kts | 239° |
| 2026-04-26 20:55 | 56.37828 | 175.94440 | 34339 ft | 502 kts | 239° |
| 2026-04-26 20:56 | 56.34235 | 175.83659 | 34345 ft | 501 kts | 239° |
| 2026-04-26 20:56 | 56.30634 | 175.72899 | 34361 ft | 501 kts | 239° |
| 2026-04-26 20:57 | 56.27027 | 175.62169 | 34366 ft | 500 kts | 239° |
| 2026-04-26 20:57 | 56.23420 | 175.51488 | 34378 ft | 499 kts | 239° |
| 2026-04-26 20:58 | 56.19769 | 175.40882 | 34384 ft | 499 kts | 238° |
| 2026-04-26 20:58 | 56.16119 | 175.30302 | 34391 ft | 498 kts | 238° |
| 2026-04-26 20:59 | 56.12487 | 175.19721 | 34397 ft | 497 kts | 238° |
| 2026-04-26 20:59 | 56.08890 | 175.09249 | 34408 ft | 497 kts | 238° |
| 2026-04-26 21:00 | 56.05261 | 174.98734 | 34415 ft | 496 kts | 238° |
| 2026-04-26 21:00 | 56.01628 | 174.88253 | 34423 ft | 495 kts | 238° |
| 2026-04-26 21:01 | 55.97991 | 174.77809 | 34430 ft | 494 kts | 238° |
| 2026-04-26 21:01 | 55.94352 | 174.67405 | 34441 ft | 494 kts | 238° |
| 2026-04-26 21:02 | 55.90708 | 174.57030 | 34442 ft | 493 kts | 238° |
| 2026-04-26 21:02 | 55.87054 | 174.46672 | 34452 ft | 493 kts | 238° |
| 2026-04-26 21:03 | 55.83396 | 174.36345 | 34456 ft | 493 kts | 238° |
| 2026-04-26 21:03 | 55.79791 | 174.26209 | 34465 ft | 492 kts | 237° |
| 2026-04-26 21:04 | 55.76100 | 174.16009 | 34476 ft | 490 kts | 237° |
| 2026-04-26 21:04 | 55.72402 | 174.05833 | 34477 ft | 490 kts | 237° |
| 2026-04-26 21:05 | 55.68729 | 173.95673 | 34489 ft | 489 kts | 237° |
| 2026-04-26 21:05 | 55.65062 | 173.85534 | 34493 ft | 488 kts | 237° |
| 2026-04-26 21:06 | 55.61464 | 173.75622 | 34499 ft | 487 kts | 237° |
| 2026-04-26 21:06 | 55.57792 | 173.65555 | 34512 ft | 487 kts | 237° |
| 2026-04-26 21:07 | 55.54116 | 173.55517 | 34515 ft | 486 kts | 237° |
| 2026-04-26 21:07 | 55.50437 | 173.45513 | 34520 ft | 485 kts | 237° |
| 2026-04-26 21:08 | 55.46783 | 173.35618 | 34531 ft | 485 kts | 237° |
| 2026-04-26 21:08 | 55.43100 | 173.25684 | 34539 ft | 484 kts | 237° |
| 2026-04-26 21:09 | 55.39407 | 173.15765 | 34543 ft | 484 kts | 237° |
| 2026-04-26 21:09 | 55.35712 | 173.05880 | 34551 ft | 484 kts | 237° |
| 2026-04-26 21:10 | 55.31992 | 172.96038 | 34564 ft | 483 kts | 236° |
| 2026-04-26 21:10 | 55.28310 | 172.86411 | 34565 ft | 483 kts | 236° |
| 2026-04-26 21:11 | 55.24580 | 172.76608 | 34570 ft | 483 kts | 237° |
| 2026-04-26 21:11 | 55.20882 | 172.66875 | 34576 ft | 483 kts | 236° |
| 2026-04-26 21:12 | 55.17183 | 172.57166 | 34592 ft | 483 kts | 236° |
| 2026-04-26 21:12 | 55.13446 | 172.47404 | 34595 ft | 483 kts | 236° |
| 2026-04-26 21:13 | 55.09701 | 172.37660 | 34605 ft | 483 kts | 236° |
| 2026-04-26 21:13 | 55.05985 | 172.28029 | 34607 ft | 482 kts | 236° |
| 2026-04-26 21:14 | 55.02228 | 172.18330 | 34617 ft | 482 kts | 236° |
| 2026-04-26 21:14 | 54.98388 | 172.08771 | 34617 ft | 483 kts | 232° |
| 2026-04-26 21:15 | 54.94179 | 171.99656 | 34627 ft | 483 kts | 230° |
| 2026-04-26 21:15 | 54.89897 | 171.90666 | 34633 ft | 483 kts | 230° |
| 2026-04-26 21:16 | 54.85633 | 171.81658 | 34646 ft | 482 kts | 231° |
| 2026-04-26 21:16 | 54.81383 | 171.72648 | 34646 ft | 482 kts | 231° |
| 2026-04-26 21:17 | 54.77168 | 171.63729 | 34654 ft | 481 kts | 231° |
| 2026-04-26 21:17 | 54.72922 | 171.54781 | 34655 ft | 481 kts | 231° |
| 2026-04-26 21:18 | 54.68663 | 171.45841 | 34663 ft | 481 kts | 231° |
| 2026-04-26 21:18 | 54.64413 | 171.36952 | 34664 ft | 480 kts | 231° |
| 2026-04-26 21:19 | 54.60154 | 171.28078 | 34668 ft | 480 kts | 231° |
| 2026-04-26 21:19 | 54.55894 | 171.19233 | 34676 ft | 479 kts | 231° |
| 2026-04-26 21:20 | 54.51627 | 171.10405 | 34680 ft | 479 kts | 231° |
| 2026-04-26 21:20 | 54.47368 | 171.01628 | 34684 ft | 479 kts | 230° |
| 2026-04-26 21:21 | 54.43065 | 170.92889 | 34689 ft | 479 kts | 230° |
| 2026-04-26 21:21 | 54.38759 | 170.84162 | 34701 ft | 479 kts | 230° |
| 2026-04-26 21:22 | 54.34488 | 170.75471 | 34705 ft | 479 kts | 230° |
| 2026-04-26 21:22 | 54.30194 | 170.66744 | 34703 ft | 479 kts | 230° |
| 2026-04-26 21:23 | 54.23747 | 170.53698 | 34721 ft | 479 kts | 230° |
| 2026-04-26 21:23 | 54.19433 | 170.45008 | 34726 ft | 479 kts | 230° |
| 2026-04-26 21:24 | 54.15119 | 170.36351 | 34721 ft | 479 kts | 230° |
| 2026-04-26 21:24 | 54.10797 | 170.27706 | 34734 ft | 479 kts | 230° |
| 2026-04-26 21:25 | 54.06463 | 170.19071 | 34735 ft | 479 kts | 230° |
| 2026-04-26 21:25 | 54.02127 | 170.10459 | 34744 ft | 479 kts | 230° |
| 2026-04-26 21:26 | 53.97785 | 170.01867 | 34740 ft | 479 kts | 230° |
| 2026-04-26 21:26 | 53.93433 | 169.93286 | 34749 ft | 479 kts | 230° |
| 2026-04-26 21:27 | 53.89050 | 169.84768 | 34749 ft | 479 kts | 230° |
| 2026-04-26 21:27 | 53.84672 | 169.76272 | 34752 ft | 479 kts | 230° |
| 2026-04-26 21:28 | 53.80300 | 169.67761 | 34765 ft | 478 kts | 230° |
| 2026-04-26 21:28 | 53.75972 | 169.59341 | 34768 ft | 478 kts | 230° |
| 2026-04-26 21:29 | 53.71599 | 169.50862 | 34777 ft | 478 kts | 230° |
| 2026-04-26 21:29 | 53.67235 | 169.42435 | 34778 ft | 477 kts | 230° |
| 2026-04-26 21:30 | 53.62879 | 169.33996 | 34781 ft | 476 kts | 233° |
| 2026-04-26 21:30 | 53.59858 | 169.26296 | 34790 ft | 474 kts | 242° |
| 2026-04-26 21:31 | 53.56278 | 169.14844 | 34792 ft | 473 kts | 245° |
| 2026-04-26 21:31 | 53.53245 | 169.05035 | 34799 ft | 472 kts | 244° |
| 2026-04-26 21:32 | 53.50156 | 168.95320 | 34802 ft | 472 kts | 244° |
| 2026-04-26 21:32 | 53.47034 | 168.85629 | 34807 ft | 472 kts | 243° |
| 2026-04-26 21:33 | 53.43921 | 168.76020 | 34812 ft | 471 kts | 244° |
| 2026-04-26 21:33 | 53.40788 | 168.66378 | 34818 ft | 471 kts | 243° |
| 2026-04-26 21:34 | 53.37649 | 168.56753 | 34822 ft | 470 kts | 244° |
| 2026-04-26 21:34 | 53.34507 | 168.47158 | 34829 ft | 470 kts | 244° |
| 2026-04-26 21:35 | 53.31423 | 168.37772 | 34836 ft | 470 kts | 243° |
| 2026-04-26 21:35 | 53.28229 | 168.28237 | 34840 ft | 470 kts | 243° |
| 2026-04-26 21:36 | 53.25564 | 168.20315 | 34840 ft | 470 kts | 243° |
| 2026-04-26 21:36 | 53.21830 | 168.09181 | 34846 ft | 470 kts | 243° |
| 2026-04-26 21:37 | 53.18639 | 167.99672 | 34853 ft | 470 kts | 243° |
| 2026-04-26 21:37 | 53.15439 | 167.90173 | 34858 ft | 470 kts | 243° |
| 2026-04-26 21:38 | 53.12255 | 167.80758 | 34858 ft | 470 kts | 243° |
| 2026-04-26 21:38 | 53.09038 | 167.71285 | 34864 ft | 470 kts | 243° |
| 2026-04-26 21:39 | 53.05815 | 167.61830 | 34869 ft | 470 kts | 243° |
| 2026-04-26 21:39 | 53.02585 | 167.52390 | 34875 ft | 470 kts | 243° |
| 2026-04-26 21:40 | 52.99342 | 167.42949 | 34879 ft | 470 kts | 242° |
| 2026-04-26 21:40 | 52.96095 | 167.33535 | 34883 ft | 470 kts | 242° |
| 2026-04-26 21:41 | 52.92841 | 167.24133 | 34885 ft | 470 kts | 242° |
| 2026-04-26 21:41 | 52.89597 | 167.14811 | 34890 ft | 471 kts | 242° |
| 2026-04-26 21:42 | 52.86262 | 167.05403 | 34894 ft | 471 kts | 242° |
| 2026-04-26 21:42 | 52.82958 | 166.96051 | 34897 ft | 471 kts | 242° |
| 2026-04-26 21:43 | 52.79664 | 166.86695 | 34898 ft | 471 kts | 242° |
| 2026-04-26 21:43 | 52.76390 | 166.77408 | 34906 ft | 470 kts | 242° |
| 2026-04-26 21:44 | 52.73626 | 166.69595 | 34907 ft | 470 kts | 242° |
| 2026-04-26 21:44 | 52.70327 | 166.60305 | 34909 ft | 470 kts | 242° |
| 2026-04-26 21:45 | 52.67016 | 166.51018 | 34914 ft | 470 kts | 242° |
| 2026-04-26 21:45 | 52.63699 | 166.41748 | 34917 ft | 469 kts | 242° |
| 2026-04-26 21:46 | 52.60379 | 166.32501 | 34919 ft | 469 kts | 242° |
| 2026-04-26 21:46 | 52.57056 | 166.23282 | 34923 ft | 469 kts | 242° |
| 2026-04-26 21:47 | 52.53727 | 166.14081 | 34928 ft | 468 kts | 242° |
| 2026-04-26 21:47 | 52.50388 | 166.04885 | 34932 ft | 468 kts | 242° |
| 2026-04-26 21:48 | 52.47040 | 165.95724 | 34936 ft | 468 kts | 242° |
| 2026-04-26 21:48 | 52.43657 | 165.86621 | 34934 ft | 467 kts | 242° |
| 2026-04-26 21:49 | 52.40289 | 165.77517 | 34934 ft | 466 kts | 242° |
| 2026-04-26 21:49 | 52.36938 | 165.68433 | 34934 ft | 466 kts | 242° |
| 2026-04-26 21:50 | 52.33584 | 165.59358 | 34941 ft | 466 kts | 242° |
| 2026-04-26 21:50 | 52.30231 | 165.50322 | 35097 ft | 462 kts | 242° |
| 2026-04-26 21:51 | 52.28563 | 165.45841 | 35440 ft | 460 kts | 242° |
| 2026-04-26 21:51 | 52.26907 | 165.41399 | 35780 ft | 458 kts | 242° |
| 2026-04-26 21:51 | 52.25240 | 165.36934 | 35908 ft | 462 kts | 242° |
| 2026-04-26 21:51 | 52.23557 | 165.32426 | 35935 ft | 467 kts | 242° |
| 2026-04-26 21:52 | 52.20179 | 165.23416 | 35950 ft | 468 kts | 242° |
| 2026-04-26 21:52 | 52.16763 | 165.14348 | 35949 ft | 466 kts | 242° |
| 2026-04-26 21:53 | 52.13386 | 165.05409 | 35946 ft | 466 kts | 242° |
| 2026-04-26 21:53 | 52.09986 | 164.96439 | 35952 ft | 466 kts | 242° |
| 2026-04-26 21:54 | 52.06580 | 164.87485 | 35947 ft | 465 kts | 242° |
| 2026-04-26 21:54 | 52.03160 | 164.78573 | 35941 ft | 465 kts | 242° |
| 2026-04-26 21:55 | 51.99709 | 164.69696 | 35950 ft | 465 kts | 242° |
| 2026-04-26 21:55 | 51.96280 | 164.60833 | 35950 ft | 464 kts | 242° |
| 2026-04-26 21:56 | 51.92858 | 164.51970 | 35951 ft | 463 kts | 242° |
| 2026-04-26 21:56 | 51.89437 | 164.43130 | 35950 ft | 463 kts | 242° |
| 2026-04-26 21:57 | 51.86018 | 164.34327 | 35950 ft | 462 kts | 242° |
| 2026-04-26 21:57 | 51.82587 | 164.25526 | 35952 ft | 462 kts | 242° |
| 2026-04-26 21:58 | 51.79162 | 164.16769 | 35950 ft | 461 kts | 242° |
| 2026-04-26 21:58 | 51.75727 | 164.08017 | 35944 ft | 461 kts | 242° |
| 2026-04-26 21:59 | 51.72296 | 163.99306 | 35952 ft | 460 kts | 242° |
| 2026-04-26 21:59 | 51.68856 | 163.90602 | 35951 ft | 460 kts | 242° |
| 2026-04-26 22:00 | 51.65416 | 163.81926 | 35944 ft | 459 kts | 242° |
| 2026-04-26 22:00 | 51.61975 | 163.73277 | 35953 ft | 459 kts | 242° |
| 2026-04-26 22:01 | 51.58532 | 163.64646 | 35951 ft | 458 kts | 242° |
| 2026-04-26 22:01 | 51.55059 | 163.56045 | 35952 ft | 458 kts | 242° |
| 2026-04-26 22:02 | 51.51624 | 163.47537 | 35951 ft | 457 kts | 242° |
| 2026-04-26 22:02 | 51.48172 | 163.38990 | 35956 ft | 456 kts | 242° |
| 2026-04-26 22:03 | 51.44716 | 163.30457 | 35957 ft | 456 kts | 242° |
| 2026-04-26 22:03 | 51.41256 | 163.21942 | 35954 ft | 456 kts | 242° |
| 2026-04-26 22:04 | 51.37789 | 163.13441 | 35951 ft | 456 kts | 242° |
| 2026-04-26 22:04 | 51.34322 | 163.04967 | 35961 ft | 455 kts | 242° |
| 2026-04-26 22:05 | 51.30859 | 162.96531 | 35963 ft | 455 kts | 242° |
| 2026-04-26 22:05 | 51.27373 | 162.88101 | 35966 ft | 455 kts | 242° |
| 2026-04-26 22:06 | 51.23870 | 162.79686 | 35957 ft | 454 kts | 242° |
| 2026-04-26 22:06 | 51.20385 | 162.71292 | 35964 ft | 454 kts | 242° |
| 2026-04-26 22:07 | 51.16922 | 162.62953 | 35965 ft | 454 kts | 242° |
| 2026-04-26 22:07 | 51.13441 | 162.54593 | 35967 ft | 453 kts | 242° |
| 2026-04-26 22:08 | 51.09951 | 162.46239 | 35969 ft | 453 kts | 242° |
| 2026-04-26 22:08 | 51.06458 | 162.37904 | 35971 ft | 453 kts | 242° |
| 2026-04-26 22:09 | 51.02960 | 162.29586 | 35976 ft | 452 kts | 242° |
| 2026-04-26 22:09 | 50.99464 | 162.21300 | 35972 ft | 452 kts | 241° |
| 2026-04-26 22:10 | 50.95959 | 162.13017 | 35979 ft | 452 kts | 241° |
| 2026-04-26 22:10 | 50.92451 | 162.04753 | 35979 ft | 451 kts | 241° |
| 2026-04-26 22:11 | 50.88941 | 161.96513 | 35983 ft | 451 kts | 241° |
| 2026-04-26 22:11 | 50.85450 | 161.88342 | 35984 ft | 451 kts | 241° |
| 2026-04-26 22:12 | 50.81925 | 161.80142 | 35988 ft | 451 kts | 241° |
| 2026-04-26 22:12 | 50.78420 | 161.72102 | 35986 ft | 450 kts | 241° |
| 2026-04-26 22:13 | 50.74877 | 161.63943 | 35989 ft | 450 kts | 241° |
| 2026-04-26 22:13 | 50.71350 | 161.55802 | 35988 ft | 449 kts | 241° |
| 2026-04-26 22:14 | 50.67821 | 161.47669 | 35997 ft | 449 kts | 241° |
| 2026-04-26 22:14 | 50.64292 | 161.39558 | 35995 ft | 449 kts | 241° |
| 2026-04-26 22:15 | 50.60754 | 161.31456 | 36003 ft | 448 kts | 241° |
| 2026-04-26 22:15 | 50.57215 | 161.23378 | 36003 ft | 448 kts | 241° |
| 2026-04-26 22:16 | 50.53676 | 161.15324 | 36008 ft | 448 kts | 241° |
| 2026-04-26 22:16 | 50.50128 | 161.07273 | 36011 ft | 448 kts | 240° |
| 2026-04-26 22:17 | 50.46602 | 160.99299 | 36016 ft | 447 kts | 240° |
| 2026-04-26 22:17 | 50.43053 | 160.91295 | 36016 ft | 447 kts | 240° |
| 2026-04-26 22:18 | 50.39497 | 160.83300 | 36022 ft | 447 kts | 240° |
| 2026-04-26 22:18 | 50.35936 | 160.75320 | 36022 ft | 446 kts | 240° |
| 2026-04-26 22:19 | 50.32345 | 160.67392 | 36029 ft | 446 kts | 240° |
| 2026-04-26 22:19 | 50.28764 | 160.59490 | 36032 ft | 446 kts | 240° |
| 2026-04-26 22:20 | 50.25796 | 160.52915 | 36035 ft | 446 kts | 240° |
| 2026-04-26 22:20 | 50.21616 | 160.43657 | 36041 ft | 445 kts | 240° |
| 2026-04-26 22:21 | 50.18033 | 160.35777 | 36043 ft | 445 kts | 240° |
| 2026-04-26 22:21 | 50.14456 | 160.27970 | 36048 ft | 445 kts | 240° |
| 2026-04-26 22:22 | 50.10836 | 160.20075 | 36054 ft | 445 kts | 240° |
| 2026-04-26 22:22 | 50.07263 | 160.12297 | 36055 ft | 444 kts | 240° |
| 2026-04-26 22:23 | 50.03662 | 160.04478 | 36055 ft | 444 kts | 240° |
| 2026-04-26 22:23 | 50.00065 | 159.96692 | 36059 ft | 443 kts | 240° |
| 2026-04-26 22:24 | 49.96467 | 159.88924 | 36076 ft | 443 kts | 240° |
| 2026-04-26 22:24 | 49.92861 | 159.81164 | 36071 ft | 442 kts | 240° |
| 2026-04-26 22:25 | 49.89256 | 159.73429 | 36078 ft | 442 kts | 240° |
| 2026-04-26 22:25 | 49.85649 | 159.65712 | 36073 ft | 442 kts | 240° |
| 2026-04-26 22:26 | 49.82043 | 159.58019 | 36082 ft | 442 kts | 240° |
| 2026-04-26 22:26 | 49.78433 | 159.50341 | 36085 ft | 441 kts | 240° |
| 2026-04-26 22:27 | 49.74815 | 159.42666 | 36088 ft | 441 kts | 240° |
| 2026-04-26 22:27 | 49.71214 | 159.35073 | 36090 ft | 441 kts | 239° |
| 2026-04-26 22:28 | 49.67515 | 159.27519 | 36099 ft | 441 kts | 239° |
| 2026-04-26 22:28 | 49.63802 | 159.19975 | 36095 ft | 440 kts | 239° |
| 2026-04-26 22:29 | 49.60113 | 159.12453 | 36104 ft | 440 kts | 239° |
| 2026-04-26 22:29 | 49.56417 | 159.04920 | 36106 ft | 440 kts | 239° |
| 2026-04-26 22:30 | 49.52724 | 158.97413 | 36112 ft | 440 kts | 239° |
| 2026-04-26 22:30 | 49.49025 | 158.89913 | 36112 ft | 440 kts | 239° |
| 2026-04-26 22:31 | 49.45326 | 158.82436 | 36117 ft | 440 kts | 239° |
| 2026-04-26 22:31 | 49.41615 | 158.74957 | 36122 ft | 439 kts | 239° |
| 2026-04-26 22:32 | 49.37907 | 158.67504 | 36125 ft | 440 kts | 239° |
| 2026-04-26 22:32 | 49.34195 | 158.60064 | 36122 ft | 439 kts | 239° |
| 2026-04-26 22:33 | 49.28641 | 158.48970 | 36128 ft | 439 kts | 239° |
| 2026-04-26 22:34 | 49.24894 | 158.41512 | 36133 ft | 439 kts | 238° |
| 2026-04-26 22:34 | 49.21183 | 158.34152 | 36136 ft | 439 kts | 238° |
| 2026-04-26 22:35 | 49.17421 | 158.26793 | 36133 ft | 439 kts | 238° |
| 2026-04-26 22:35 | 49.13664 | 158.19435 | 36139 ft | 439 kts | 238° |
| 2026-04-26 22:36 | 49.09912 | 158.12063 | 36144 ft | 439 kts | 238° |
| 2026-04-26 22:36 | 49.06160 | 158.04698 | 36139 ft | 440 kts | 238° |
| 2026-04-26 22:37 | 49.03037 | 157.98582 | 36148 ft | 440 kts | 238° |
| 2026-04-26 22:37 | 48.99277 | 157.91238 | 36141 ft | 440 kts | 238° |
| 2026-04-26 22:38 | 48.95509 | 157.83899 | 36156 ft | 440 kts | 238° |
| 2026-04-26 22:38 | 48.91738 | 157.76575 | 36147 ft | 440 kts | 238° |
| 2026-04-26 22:39 | 48.87962 | 157.69261 | 36152 ft | 440 kts | 238° |
| 2026-04-26 22:39 | 48.84174 | 157.61945 | 36148 ft | 440 kts | 238° |
| 2026-04-26 22:39 | 48.82286 | 157.58308 | 35859 ft | 436 kts | 239° |
| 2026-04-26 22:40 | 48.80437 | 157.54766 | 36078 ft | 422 kts | 239° |
| 2026-04-26 22:40 | 48.76968 | 157.48116 | 36144 ft | 412 kts | 239° |
| 2026-04-26 22:41 | 48.73419 | 157.41292 | 36147 ft | 414 kts | 239° |
| 2026-04-26 22:41 | 48.69849 | 157.34459 | 36153 ft | 413 kts | 239° |
| 2026-04-26 22:42 | 48.66250 | 157.27677 | 36152 ft | 413 kts | 238° |
| 2026-04-26 22:42 | 48.62661 | 157.20903 | 36151 ft | 412 kts | 239° |
| 2026-04-26 22:42 | 48.60873 | 157.17522 | 36377 ft | 408 kts | 239° |
| 2026-04-26 22:43 | 48.59107 | 157.14183 | 36744 ft | 406 kts | 239° |
| 2026-04-26 22:43 | 48.57355 | 157.10869 | 37064 ft | 405 kts | 238° |
| 2026-04-26 22:43 | 48.55591 | 157.07526 | 37131 ft | 409 kts | 238° |
| 2026-04-26 22:44 | 48.51998 | 157.00724 | 37153 ft | 419 kts | 238° |
| 2026-04-26 22:44 | 48.48361 | 156.93884 | 37152 ft | 416 kts | 238° |
| 2026-04-26 22:45 | 48.44770 | 156.87150 | 37153 ft | 415 kts | 238° |
| 2026-04-26 22:45 | 48.41154 | 156.80376 | 37153 ft | 415 kts | 238° |
| 2026-04-26 22:46 | 48.37538 | 156.73618 | 37155 ft | 414 kts | 238° |
| 2026-04-26 22:46 | 48.33928 | 156.66893 | 37155 ft | 414 kts | 238° |
| 2026-04-26 22:47 | 48.30269 | 156.60195 | 37153 ft | 414 kts | 237° |
| 2026-04-26 22:47 | 48.26616 | 156.53529 | 37154 ft | 413 kts | 237° |
| 2026-04-26 22:48 | 48.22972 | 156.46871 | 37153 ft | 413 kts | 237° |
| 2026-04-26 22:48 | 48.19326 | 156.40216 | 37153 ft | 412 kts | 237° |
| 2026-04-26 22:49 | 48.15686 | 156.33586 | 37153 ft | 412 kts | 237° |
| 2026-04-26 22:49 | 48.12065 | 156.27005 | 37148 ft | 412 kts | 237° |
| 2026-04-26 22:50 | 48.08420 | 156.20397 | 37139 ft | 411 kts | 237° |
| 2026-04-26 22:50 | 48.04777 | 156.13810 | 37152 ft | 411 kts | 237° |
| 2026-04-26 22:51 | 48.01133 | 156.07239 | 37149 ft | 411 kts | 237° |
| 2026-04-26 22:51 | 47.97483 | 156.00672 | 37142 ft | 410 kts | 237° |
| 2026-04-26 22:52 | 47.93834 | 155.94122 | 37148 ft | 410 kts | 237° |
| 2026-04-26 22:52 | 47.90187 | 155.87592 | 37149 ft | 410 kts | 237° |
| 2026-04-26 22:53 | 47.86535 | 155.81068 | 37148 ft | 410 kts | 237° |
| 2026-04-26 22:53 | 47.82880 | 155.74556 | 37149 ft | 409 kts | 237° |
| 2026-04-26 22:54 | 47.79240 | 155.68120 | 37149 ft | 409 kts | 236° |
| 2026-04-26 22:54 | 47.75559 | 155.61661 | 37149 ft | 409 kts | 237° |
| 2026-04-26 22:55 | 47.71887 | 155.55196 | 37139 ft | 409 kts | 237° |
| 2026-04-26 22:55 | 47.68226 | 155.48741 | 37148 ft | 409 kts | 237° |
| 2026-04-26 22:56 | 47.64564 | 155.42292 | 37139 ft | 409 kts | 237° |
| 2026-04-26 22:56 | 47.60901 | 155.35858 | 37134 ft | 409 kts | 237° |
| 2026-04-26 22:57 | 47.57228 | 155.29424 | 37139 ft | 408 kts | 236° |
| 2026-04-26 22:57 | 47.53559 | 155.23011 | 37141 ft | 408 kts | 236° |
| 2026-04-26 22:58 | 47.49908 | 155.16644 | 37136 ft | 408 kts | 236° |
| 2026-04-26 22:58 | 47.46235 | 155.10253 | 37138 ft | 408 kts | 236° |
| 2026-04-26 22:59 | 47.42558 | 155.03873 | 37138 ft | 408 kts | 236° |
| 2026-04-26 22:59 | 47.38874 | 154.97495 | 37135 ft | 408 kts | 236° |
| 2026-04-26 23:00 | 47.35191 | 154.91132 | 37136 ft | 408 kts | 236° |
| 2026-04-26 23:00 | 47.31504 | 154.84778 | 37137 ft | 408 kts | 236° |
| 2026-04-26 23:01 | 47.27817 | 154.78440 | 37135 ft | 408 kts | 236° |
| 2026-04-26 23:01 | 47.24100 | 154.72122 | 37132 ft | 408 kts | 236° |
| 2026-04-26 23:02 | 47.20389 | 154.65826 | 37131 ft | 407 kts | 236° |
| 2026-04-26 23:02 | 47.16685 | 154.59519 | 37128 ft | 407 kts | 236° |
| 2026-04-26 23:03 | 47.12987 | 154.53223 | 37130 ft | 407 kts | 236° |
| 2026-04-26 23:03 | 47.09289 | 154.46939 | 37127 ft | 407 kts | 236° |
| 2026-04-26 23:04 | 47.05615 | 154.40710 | 37128 ft | 407 kts | 236° |
| 2026-04-26 23:04 | 47.01911 | 154.34445 | 37126 ft | 406 kts | 236° |
| 2026-04-26 23:05 | 46.98208 | 154.28196 | 37121 ft | 406 kts | 236° |
| 2026-04-26 23:05 | 46.94502 | 154.21957 | 37126 ft | 406 kts | 236° |
| 2026-04-26 23:06 | 46.90792 | 154.15726 | 37123 ft | 406 kts | 236° |
| 2026-04-26 23:06 | 46.87084 | 154.09512 | 37123 ft | 406 kts | 236° |
| 2026-04-26 23:07 | 46.83371 | 154.03304 | 37116 ft | 405 kts | 236° |
| 2026-04-26 23:07 | 46.79658 | 153.97109 | 37121 ft | 405 kts | 236° |
| 2026-04-26 23:08 | 46.75965 | 153.90963 | 37123 ft | 405 kts | 236° |
| 2026-04-26 23:08 | 46.72249 | 153.84798 | 37115 ft | 405 kts | 235° |
| 2026-04-26 23:09 | 46.68503 | 153.78658 | 37114 ft | 405 kts | 235° |
| 2026-04-26 23:09 | 46.64770 | 153.72527 | 37124 ft | 405 kts | 235° |
| 2026-04-26 23:10 | 46.61041 | 153.66388 | 37122 ft | 405 kts | 235° |
| 2026-04-26 23:10 | 46.57313 | 153.60255 | 37109 ft | 404 kts | 235° |
| 2026-04-26 23:11 | 46.53590 | 153.54141 | 37110 ft | 404 kts | 236° |
| 2026-04-26 23:11 | 46.49863 | 153.48035 | 37111 ft | 404 kts | 235° |
| 2026-04-26 23:12 | 46.46155 | 153.41975 | 37107 ft | 404 kts | 235° |
| 2026-04-26 23:12 | 46.42431 | 153.35901 | 37109 ft | 403 kts | 235° |
| 2026-04-26 23:13 | 46.38700 | 153.29830 | 37102 ft | 403 kts | 235° |
| 2026-04-26 23:13 | 46.34976 | 153.23785 | 37104 ft | 402 kts | 235° |
| 2026-04-26 23:14 | 46.31252 | 153.17751 | 37107 ft | 402 kts | 235° |
| 2026-04-26 23:14 | 46.27528 | 153.11732 | 37105 ft | 401 kts | 235° |
| 2026-04-26 23:15 | 46.23800 | 153.05720 | 37106 ft | 401 kts | 235° |
| 2026-04-26 23:15 | 46.20074 | 152.99723 | 37103 ft | 401 kts | 235° |
| 2026-04-26 23:16 | 46.16346 | 152.93750 | 37104 ft | 401 kts | 235° |
| 2026-04-26 23:16 | 46.12618 | 152.87840 | 37103 ft | 400 kts | 235° |
| 2026-04-26 23:17 | 46.08959 | 152.82023 | 37093 ft | 399 kts | 235° |
| 2026-04-26 23:17 | 46.05242 | 152.76102 | 37099 ft | 399 kts | 235° |
| 2026-04-26 23:18 | 46.01519 | 152.70176 | 37101 ft | 398 kts | 235° |
| 2026-04-26 23:18 | 45.97806 | 152.64278 | 37097 ft | 398 kts | 235° |
| 2026-04-26 23:19 | 45.94095 | 152.58396 | 37094 ft | 397 kts | 235° |
| 2026-04-26 23:19 | 45.90384 | 152.52528 | 37093 ft | 396 kts | 235° |
| 2026-04-26 23:20 | 45.86703 | 152.46719 | 37099 ft | 396 kts | 236° |
| 2026-04-26 23:20 | 45.82997 | 152.40883 | 37096 ft | 395 kts | 236° |
| 2026-04-26 23:21 | 45.79298 | 152.35070 | 37094 ft | 394 kts | 236° |
| 2026-04-26 23:21 | 45.75602 | 152.29274 | 37092 ft | 394 kts | 236° |
| 2026-04-26 23:22 | 45.71903 | 152.23487 | 37094 ft | 393 kts | 236° |
| 2026-04-26 23:22 | 45.68214 | 152.17727 | 37092 ft | 392 kts | 236° |
| 2026-04-26 23:23 | 45.64535 | 152.11994 | 37090 ft | 392 kts | 236° |
| 2026-04-26 23:23 | 45.60844 | 152.06260 | 37090 ft | 391 kts | 236° |
| 2026-04-26 23:24 | 45.57145 | 152.00581 | 37090 ft | 390 kts | 236° |
| 2026-04-26 23:24 | 45.53457 | 151.94905 | 37091 ft | 389 kts | 236° |
| 2026-04-26 23:25 | 45.49809 | 151.89278 | 37088 ft | 389 kts | 236° |
| 2026-04-26 23:25 | 45.46142 | 151.83625 | 37087 ft | 388 kts | 236° |
| 2026-04-26 23:26 | 45.42486 | 151.77999 | 37088 ft | 387 kts | 236° |
| 2026-04-26 23:26 | 45.38827 | 151.72380 | 37092 ft | 386 kts | 236° |
| 2026-04-26 23:27 | 45.35175 | 151.66783 | 37097 ft | 386 kts | 236° |
| 2026-04-26 23:27 | 45.31528 | 151.61206 | 37094 ft | 385 kts | 236° |
| 2026-04-26 23:28 | 45.27884 | 151.55643 | 37087 ft | 384 kts | 237° |
| 2026-04-26 23:28 | 45.24242 | 151.50096 | 37089 ft | 383 kts | 237° |
| 2026-04-26 23:29 | 45.20630 | 151.44606 | 37079 ft | 383 kts | 237° |
| 2026-04-26 23:29 | 45.16999 | 151.39097 | 37092 ft | 382 kts | 237° |
| 2026-04-26 23:30 | 45.13368 | 151.33598 | 37090 ft | 382 kts | 237° |
| 2026-04-26 23:30 | 45.09739 | 151.28117 | 37093 ft | 381 kts | 237° |
| 2026-04-26 23:31 | 45.06118 | 151.22656 | 37090 ft | 380 kts | 237° |
| 2026-04-26 23:31 | 45.02485 | 151.17218 | 37091 ft | 380 kts | 236° |
| 2026-04-26 23:32 | 44.98846 | 151.11802 | 37086 ft | 380 kts | 237° |
| 2026-04-26 23:32 | 44.95222 | 151.06389 | 37090 ft | 379 kts | 237° |
| 2026-04-26 23:33 | 44.92213 | 151.01892 | 37087 ft | 379 kts | 237° |
| 2026-04-26 23:33 | 44.88009 | 150.95615 | 37086 ft | 378 kts | 237° |
| 2026-04-26 23:34 | 44.84399 | 150.90235 | 37090 ft | 378 kts | 237° |
| 2026-04-26 23:34 | 44.81371 | 150.85730 | 37088 ft | 378 kts | 237° |
| 2026-04-26 23:35 | 44.77757 | 150.80365 | 37099 ft | 377 kts | 237° |
| 2026-04-26 23:35 | 44.74145 | 150.75012 | 37099 ft | 377 kts | 236° |
| 2026-04-26 23:36 | 44.70537 | 150.69675 | 37089 ft | 376 kts | 236° |
| 2026-04-26 23:36 | 44.66928 | 150.64347 | 37091 ft | 376 kts | 236° |
| 2026-04-26 23:37 | 44.63341 | 150.59063 | 37090 ft | 376 kts | 236° |
| 2026-04-26 23:37 | 44.59783 | 150.53831 | 37088 ft | 375 kts | 236° |
| 2026-04-26 23:38 | 44.56181 | 150.48543 | 37083 ft | 375 kts | 236° |
| 2026-04-26 23:38 | 44.52580 | 150.43269 | 37086 ft | 374 kts | 236° |
| 2026-04-26 23:39 | 44.48984 | 150.38011 | 37087 ft | 373 kts | 236° |
| 2026-04-26 23:39 | 44.45384 | 150.32783 | 37088 ft | 373 kts | 236° |
| 2026-04-26 23:40 | 44.41777 | 150.27577 | 37087 ft | 372 kts | 236° |
| 2026-04-26 23:40 | 44.38205 | 150.22405 | 37087 ft | 372 kts | 236° |
| 2026-04-26 23:41 | 44.34621 | 150.17210 | 37086 ft | 371 kts | 236° |
| 2026-04-26 23:41 | 44.31046 | 150.12033 | 37092 ft | 370 kts | 236° |
| 2026-04-26 23:42 | 44.27471 | 150.06865 | 37088 ft | 370 kts | 236° |
| 2026-04-26 23:42 | 44.22115 | 149.99139 | 37087 ft | 369 kts | 235° |
| 2026-04-26 23:43 | 44.18549 | 149.94008 | 37086 ft | 368 kts | 235° |
| 2026-04-26 23:43 | 44.14994 | 149.88903 | 37087 ft | 367 kts | 235° |
| 2026-04-26 23:44 | 44.11436 | 149.83804 | 37088 ft | 366 kts | 235° |
| 2026-04-26 23:44 | 44.07892 | 149.78732 | 37089 ft | 366 kts | 235° |
| 2026-04-26 23:45 | 44.04349 | 149.73671 | 37087 ft | 365 kts | 235° |
| 2026-04-26 23:45 | 44.00829 | 149.68652 | 37086 ft | 364 kts | 235° |
| 2026-04-26 23:46 | 43.97295 | 149.63624 | 37084 ft | 363 kts | 234° |
| 2026-04-26 23:46 | 43.93766 | 149.58611 | 37084 ft | 363 kts | 234° |
| 2026-04-26 23:47 | 43.90245 | 149.53618 | 37085 ft | 362 kts | 234° |
| 2026-04-26 23:47 | 43.86709 | 149.48648 | 37084 ft | 361 kts | 234° |
| 2026-04-26 23:48 | 43.83185 | 149.43710 | 37082 ft | 360 kts | 234° |
| 2026-04-26 23:48 | 43.79679 | 149.38782 | 37082 ft | 359 kts | 234° |
| 2026-04-26 23:49 | 43.76187 | 149.33870 | 37093 ft | 357 kts | 234° |
| 2026-04-26 23:49 | 43.72726 | 149.29006 | 37088 ft | 356 kts | 234° |
| 2026-04-26 23:50 | 43.69256 | 149.24138 | 37084 ft | 355 kts | 234° |
| 2026-04-26 23:50 | 43.65783 | 149.19275 | 37081 ft | 355 kts | 234° |
| 2026-04-26 23:51 | 43.62323 | 149.14437 | 37081 ft | 354 kts | 234° |
| 2026-04-26 23:51 | 43.58861 | 149.09606 | 37082 ft | 353 kts | 233° |
| 2026-04-26 23:52 | 43.55411 | 149.04799 | 37081 ft | 352 kts | 233° |
| 2026-04-26 23:52 | 43.51965 | 149.00007 | 37081 ft | 352 kts | 233° |
| 2026-04-26 23:53 | 43.48525 | 148.95231 | 37080 ft | 351 kts | 233° |
| 2026-04-26 23:53 | 43.45082 | 148.90460 | 37077 ft | 351 kts | 233° |
| 2026-04-26 23:54 | 43.41660 | 148.85725 | 37078 ft | 351 kts | 233° |
| 2026-04-26 23:54 | 43.38226 | 148.80981 | 37083 ft | 350 kts | 233° |
| 2026-04-26 23:55 | 43.34786 | 148.76239 | 37075 ft | 350 kts | 233° |
| 2026-04-26 23:55 | 43.31345 | 148.71503 | 37072 ft | 350 kts | 232° |
| 2026-04-26 23:56 | 43.27895 | 148.66799 | 37073 ft | 350 kts | 232° |
| 2026-04-26 23:56 | 43.24441 | 148.62096 | 37073 ft | 349 kts | 232° |
| 2026-04-26 23:57 | 43.20999 | 148.57396 | 37074 ft | 349 kts | 232° |
| 2026-04-26 23:57 | 43.17560 | 148.52698 | 37073 ft | 349 kts | 232° |
| 2026-04-26 23:58 | 43.14126 | 148.48013 | 37073 ft | 348 kts | 232° |
| 2026-04-26 23:58 | 43.10690 | 148.43331 | 37074 ft | 348 kts | 232° |
| 2026-04-26 23:59 | 43.07284 | 148.38699 | 37075 ft | 347 kts | 232° |
| 2026-04-26 23:59 | 43.03858 | 148.34047 | 37072 ft | 347 kts | 231° |
| 2026-04-27 00:00 | 43.00426 | 148.29393 | 37066 ft | 347 kts | 231° |
| 2026-04-27 00:00 | 42.96993 | 148.24746 | 37069 ft | 347 kts | 231° |
| 2026-04-27 00:01 | 42.93561 | 148.20109 | 37071 ft | 347 kts | 231° |
| 2026-04-27 00:01 | 42.90119 | 148.15467 | 37070 ft | 348 kts | 231° |
| 2026-04-27 00:02 | 42.86683 | 148.10841 | 37076 ft | 347 kts | 231° |
| 2026-04-27 00:02 | 42.83247 | 148.06221 | 37063 ft | 347 kts | 231° |
| 2026-04-27 00:03 | 42.79804 | 148.01599 | 37060 ft | 348 kts | 231° |
| 2026-04-27 00:03 | 42.76361 | 147.96985 | 37062 ft | 348 kts | 230° |
| 2026-04-27 00:04 | 42.72937 | 147.92406 | 37065 ft | 348 kts | 230° |
| 2026-04-27 00:04 | 42.69476 | 147.87807 | 37067 ft | 348 kts | 230° |
| 2026-04-27 00:05 | 42.66009 | 147.83224 | 37065 ft | 348 kts | 230° |
| 2026-04-27 00:05 | 42.62549 | 147.78634 | 37062 ft | 347 kts | 230° |
| 2026-04-27 00:06 | 42.59093 | 147.74045 | 37061 ft | 348 kts | 230° |
| 2026-04-27 00:06 | 42.55633 | 147.69456 | 37057 ft | 348 kts | 230° |
| 2026-04-27 00:07 | 42.52246 | 147.64971 | 37164 ft | 345 kts | 230° |
| 2026-04-27 00:07 | 42.50539 | 147.62717 | 37584 ft | 341 kts | 230° |
| 2026-04-27 00:07 | 42.48843 | 147.60476 | 37950 ft | 340 kts | 230° |
| 2026-04-27 00:08 | 42.45436 | 147.55972 | 38059 ft | 343 kts | 230° |
| 2026-04-27 00:08 | 42.42042 | 147.51500 | 38059 ft | 339 kts | 229° |
| 2026-04-27 00:09 | 42.38732 | 147.47034 | 38056 ft | 338 kts | 231° |
| 2026-04-27 00:09 | 42.35374 | 147.42495 | 38055 ft | 339 kts | 229° |
| 2026-04-27 00:10 | 42.31996 | 147.38101 | 38057 ft | 340 kts | 229° |
| 2026-04-27 00:10 | 42.28569 | 147.33653 | 38055 ft | 339 kts | 229° |
| 2026-04-27 00:11 | 42.25184 | 147.29260 | 38054 ft | 340 kts | 229° |
| 2026-04-27 00:11 | 42.21778 | 147.24843 | 38057 ft | 340 kts | 229° |
| 2026-04-27 00:12 | 42.18369 | 147.20429 | 38053 ft | 340 kts | 228° |
| 2026-04-27 00:12 | 42.14953 | 147.16013 | 38052 ft | 340 kts | 228° |
| 2026-04-27 00:13 | 42.11541 | 147.11607 | 38049 ft | 340 kts | 228° |
| 2026-04-27 00:13 | 42.08117 | 147.07195 | 38050 ft | 341 kts | 228° |
| 2026-04-27 00:14 | 42.04691 | 147.02786 | 38053 ft | 341 kts | 228° |
| 2026-04-27 00:14 | 42.01266 | 146.98385 | 38047 ft | 341 kts | 228° |
| 2026-04-27 00:15 | 41.97827 | 146.93979 | 38045 ft | 341 kts | 227° |
| 2026-04-27 00:15 | 41.94397 | 146.89582 | 38044 ft | 341 kts | 227° |
| 2026-04-27 00:16 | 41.90987 | 146.85205 | 38043 ft | 341 kts | 227° |
| 2026-04-27 00:16 | 41.87555 | 146.80797 | 38046 ft | 342 kts | 227° |
| 2026-04-27 00:17 | 41.84122 | 146.76388 | 38040 ft | 342 kts | 227° |
| 2026-04-27 00:17 | 41.80685 | 146.71980 | 38040 ft | 342 kts | 227° |
| 2026-04-27 00:18 | 41.77239 | 146.67567 | 38042 ft | 342 kts | 227° |
| 2026-04-27 00:18 | 41.73793 | 146.63159 | 38040 ft | 343 kts | 227° |
| 2026-04-27 00:19 | 41.70341 | 146.58752 | 38039 ft | 343 kts | 227° |
| 2026-04-27 00:19 | 41.66892 | 146.54355 | 38035 ft | 343 kts | 227° |
| 2026-04-27 00:20 | 41.63578 | 146.50136 | 38035 ft | 343 kts | 227° |
| 2026-04-27 00:20 | 41.60119 | 146.45740 | 38038 ft | 343 kts | 227° |
| 2026-04-27 00:21 | 41.56655 | 146.41345 | 38026 ft | 343 kts | 226° |
| 2026-04-27 00:21 | 41.53191 | 146.36957 | 38033 ft | 343 kts | 226° |
| 2026-04-27 00:22 | 41.49728 | 146.32575 | 38032 ft | 344 kts | 226° |
| 2026-04-27 00:22 | 41.46256 | 146.28191 | 38028 ft | 344 kts | 226° |
| 2026-04-27 00:23 | 41.42780 | 146.23806 | 38031 ft | 344 kts | 226° |
| 2026-04-27 00:23 | 41.39300 | 146.19425 | 38024 ft | 344 kts | 226° |
| 2026-04-27 00:24 | 41.35820 | 146.15050 | 38029 ft | 344 kts | 226° |
| 2026-04-27 00:24 | 41.32335 | 146.10675 | 38023 ft | 345 kts | 226° |
| 2026-04-27 00:25 | 41.28829 | 146.06317 | 38019 ft | 345 kts | 225° |
| 2026-04-27 00:25 | 41.25325 | 146.01960 | 38020 ft | 345 kts | 225° |
| 2026-04-27 00:26 | 41.21847 | 145.97625 | 38019 ft | 345 kts | 225° |
| 2026-04-27 00:26 | 41.18343 | 145.93257 | 38020 ft | 345 kts | 225° |
| 2026-04-27 00:27 | 41.14841 | 145.88896 | 38017 ft | 346 kts | 225° |
| 2026-04-27 00:27 | 41.11333 | 145.84534 | 38012 ft | 346 kts | 225° |
| 2026-04-27 00:28 | 41.07824 | 145.80176 | 38014 ft | 346 kts | 225° |
| 2026-04-27 00:28 | 41.04314 | 145.75825 | 38017 ft | 346 kts | 225° |
| 2026-04-27 00:29 | 41.01393 | 145.72208 | 38012 ft | 346 kts | 225° |
| 2026-04-27 00:29 | 40.97367 | 145.67232 | 38006 ft | 346 kts | 225° |
| 2026-04-27 00:30 | 40.94590 | 145.63803 | 38008 ft | 346 kts | 225° |
| 2026-04-27 00:30 | 40.91067 | 145.59461 | 38009 ft | 346 kts | 225° |
| 2026-04-27 00:31 | 40.87546 | 145.55128 | 38007 ft | 346 kts | 225° |
| 2026-04-27 00:31 | 40.84022 | 145.50797 | 38005 ft | 346 kts | 224° |
| 2026-04-27 00:32 | 40.80498 | 145.46473 | 38004 ft | 346 kts | 224° |
| 2026-04-27 00:32 | 40.76971 | 145.42153 | 38004 ft | 346 kts | 224° |
| 2026-04-27 00:33 | 40.73460 | 145.37858 | 38001 ft | 346 kts | 224° |
| 2026-04-27 00:33 | 40.69926 | 145.33551 | 37998 ft | 347 kts | 224° |
| 2026-04-27 00:34 | 40.66372 | 145.29254 | 37998 ft | 347 kts | 224° |
| 2026-04-27 00:34 | 40.62820 | 145.24947 | 37996 ft | 347 kts | 224° |
| 2026-04-27 00:35 | 40.59272 | 145.20639 | 38003 ft | 347 kts | 224° |
| 2026-04-27 00:35 | 40.55719 | 145.16327 | 38001 ft | 348 kts | 224° |
| 2026-04-27 00:36 | 40.52161 | 145.12015 | 37991 ft | 348 kts | 224° |
| 2026-04-27 00:36 | 40.48600 | 145.07705 | 37986 ft | 348 kts | 224° |
| 2026-04-27 00:37 | 40.45040 | 145.03402 | 37986 ft | 348 kts | 224° |
| 2026-04-27 00:37 | 40.41466 | 144.99092 | 37985 ft | 349 kts | 223° |
| 2026-04-27 00:38 | 40.37895 | 144.94790 | 37984 ft | 349 kts | 223° |
| 2026-04-27 00:38 | 40.34318 | 144.90475 | 37978 ft | 349 kts | 223° |
| 2026-04-27 00:39 | 40.30762 | 144.86187 | 37977 ft | 350 kts | 223° |
| 2026-04-27 00:39 | 40.27235 | 144.81938 | 37977 ft | 351 kts | 223° |
| 2026-04-27 00:40 | 40.23640 | 144.77614 | 37974 ft | 351 kts | 223° |
| 2026-04-27 00:40 | 40.20037 | 144.73287 | 37975 ft | 352 kts | 223° |
| 2026-04-27 00:41 | 40.16426 | 144.68957 | 37971 ft | 352 kts | 223° |
| 2026-04-27 00:41 | 40.12812 | 144.64629 | 37970 ft | 353 kts | 223° |
| 2026-04-27 00:42 | 40.09185 | 144.60293 | 37969 ft | 353 kts | 223° |
| 2026-04-27 00:42 | 40.05581 | 144.55991 | 37972 ft | 354 kts | 223° |
| 2026-04-27 00:43 | 40.01922 | 144.51630 | 37971 ft | 354 kts | 223° |
| 2026-04-27 00:43 | 39.98307 | 144.47328 | 37964 ft | 354 kts | 222° |
| 2026-04-27 00:44 | 39.94665 | 144.42999 | 37961 ft | 354 kts | 222° |
| 2026-04-27 00:44 | 39.91018 | 144.38672 | 37960 ft | 355 kts | 222° |
| 2026-04-27 00:45 | 39.87369 | 144.34349 | 37954 ft | 355 kts | 222° |
| 2026-04-27 00:45 | 39.83715 | 144.30026 | 37951 ft | 355 kts | 222° |
| 2026-04-27 00:46 | 39.80050 | 144.25707 | 37941 ft | 355 kts | 222° |
| 2026-04-27 00:46 | 39.76376 | 144.21408 | 37945 ft | 356 kts | 222° |
| 2026-04-27 00:47 | 39.72702 | 144.17099 | 37936 ft | 356 kts | 221° |
| 2026-04-27 00:47 | 39.69047 | 144.12806 | 37946 ft | 356 kts | 221° |
| 2026-04-27 00:48 | 39.65346 | 144.08463 | 37947 ft | 357 kts | 221° |
| 2026-04-27 00:48 | 39.61685 | 144.04171 | 37940 ft | 357 kts | 221° |
| 2026-04-27 00:49 | 39.57996 | 143.99852 | 37938 ft | 358 kts | 221° |
| 2026-04-27 00:49 | 39.54301 | 143.95534 | 37941 ft | 357 kts | 221° |
| 2026-04-27 00:50 | 39.48764 | 143.89074 | 37938 ft | 357 kts | 221° |
| 2026-04-27 00:51 | 39.45069 | 143.84772 | 37935 ft | 357 kts | 221° |
| 2026-04-27 00:51 | 39.41374 | 143.80476 | 37936 ft | 357 kts | 221° |
| 2026-04-27 00:52 | 39.37677 | 143.76183 | 37930 ft | 357 kts | 221° |
| 2026-04-27 00:52 | 39.33999 | 143.71920 | 37928 ft | 357 kts | 221° |
| 2026-04-27 00:53 | 39.30298 | 143.67636 | 37923 ft | 357 kts | 221° |
| 2026-04-27 00:53 | 39.26593 | 143.63353 | 37923 ft | 358 kts | 220° |
| 2026-04-27 00:54 | 39.22884 | 143.59073 | 37921 ft | 358 kts | 220° |
| 2026-04-27 00:54 | 39.19170 | 143.54794 | 37918 ft | 358 kts | 220° |
| 2026-04-27 00:55 | 39.15439 | 143.50534 | 37913 ft | 359 kts | 220° |
| 2026-04-27 00:55 | 39.11709 | 143.46271 | 37909 ft | 359 kts | 220° |
| 2026-04-27 00:56 | 39.07975 | 143.41994 | 37915 ft | 359 kts | 220° |
| 2026-04-27 00:56 | 39.04266 | 143.37747 | 37915 ft | 359 kts | 220° |
| 2026-04-27 00:57 | 39.00529 | 143.33473 | 37908 ft | 360 kts | 220° |
| 2026-04-27 00:57 | 38.96786 | 143.29196 | 37909 ft | 360 kts | 220° |
| 2026-04-27 00:58 | 38.93042 | 143.24926 | 37908 ft | 360 kts | 220° |
| 2026-04-27 00:58 | 38.89296 | 143.20661 | 37901 ft | 360 kts | 220° |
| 2026-04-27 00:59 | 38.85548 | 143.16384 | 37899 ft | 361 kts | 220° |
| 2026-04-27 00:59 | 38.81956 | 143.11860 | 37896 ft | 362 kts | 223° |
| 2026-04-27 01:00 | 38.78433 | 143.07234 | 37895 ft | 363 kts | 223° |
| 2026-04-27 01:00 | 38.74901 | 143.02595 | 37897 ft | 363 kts | 223° |
| 2026-04-27 01:01 | 38.71362 | 142.97964 | 37892 ft | 364 kts | 223° |
| 2026-04-27 01:01 | 38.67837 | 142.93362 | 37890 ft | 365 kts | 222° |
| 2026-04-27 01:02 | 38.64280 | 142.88728 | 37890 ft | 365 kts | 222° |
| 2026-04-27 01:02 | 38.60712 | 142.84085 | 37898 ft | 366 kts | 222° |
| 2026-04-27 01:03 | 38.57144 | 142.79450 | 37893 ft | 366 kts | 222° |
| 2026-04-27 01:03 | 38.53564 | 142.74807 | 37890 ft | 367 kts | 222° |
| 2026-04-27 01:04 | 38.49978 | 142.70162 | 37891 ft | 367 kts | 222° |
| 2026-04-27 01:04 | 38.46396 | 142.65530 | 37887 ft | 368 kts | 222° |
| 2026-04-27 01:05 | 38.42795 | 142.60880 | 37889 ft | 369 kts | 222° |
| 2026-04-27 01:05 | 38.39185 | 142.56226 | 37882 ft | 369 kts | 222° |
| 2026-04-27 01:06 | 38.35569 | 142.51570 | 37878 ft | 370 kts | 222° |
| 2026-04-27 01:06 | 38.31948 | 142.46914 | 37877 ft | 370 kts | 222° |
| 2026-04-27 01:07 | 38.28367 | 142.42282 | 37876 ft | 371 kts | 222° |
| 2026-04-27 01:07 | 38.24752 | 142.37580 | 37872 ft | 372 kts | 222° |
| 2026-04-27 01:08 | 38.21155 | 142.32897 | 37872 ft | 373 kts | 222° |
| 2026-04-27 01:08 | 38.17529 | 142.28182 | 37870 ft | 373 kts | 222° |
| 2026-04-27 01:09 | 38.13896 | 142.23463 | 37865 ft | 374 kts | 222° |
| 2026-04-27 01:09 | 38.10247 | 142.18732 | 37867 ft | 375 kts | 222° |
| 2026-04-27 01:10 | 38.06598 | 142.14007 | 37873 ft | 375 kts | 222° |
| 2026-04-27 01:10 | 38.02942 | 142.09280 | 37867 ft | 376 kts | 222° |
| 2026-04-27 01:11 | 37.99273 | 142.04547 | 37873 ft | 376 kts | 222° |
| 2026-04-27 01:11 | 37.95601 | 141.99814 | 37863 ft | 377 kts | 222° |
| 2026-04-27 01:12 | 37.91929 | 141.95074 | 37855 ft | 377 kts | 222° |
| 2026-04-27 01:12 | 37.88252 | 141.90330 | 37861 ft | 378 kts | 222° |
| 2026-04-27 01:13 | 37.84569 | 141.85586 | 37864 ft | 378 kts | 222° |
| 2026-04-27 01:13 | 37.80878 | 141.80836 | 37856 ft | 378 kts | 221° |
| 2026-04-27 01:14 | 37.77186 | 141.76093 | 37851 ft | 378 kts | 221° |
| 2026-04-27 01:14 | 37.73493 | 141.71357 | 37852 ft | 379 kts | 221° |
| 2026-04-27 01:15 | 37.69789 | 141.66613 | 37849 ft | 379 kts | 221° |
| 2026-04-27 01:15 | 37.66082 | 141.61873 | 37853 ft | 379 kts | 221° |
| 2026-04-27 01:16 | 37.62398 | 141.57169 | 37846 ft | 379 kts | 221° |
| 2026-04-27 01:16 | 37.58684 | 141.52433 | 37844 ft | 380 kts | 221° |
| 2026-04-27 01:17 | 37.54966 | 141.47701 | 37845 ft | 380 kts | 221° |
| 2026-04-27 01:17 | 37.51245 | 141.42972 | 37845 ft | 380 kts | 221° |
| 2026-04-27 01:18 | 37.47524 | 141.38249 | 37842 ft | 380 kts | 221° |
| 2026-04-27 01:18 | 37.43796 | 141.33525 | 37839 ft | 380 kts | 221° |
| 2026-04-27 01:19 | 37.40055 | 141.28816 | 37840 ft | 380 kts | 220° |
| 2026-04-27 01:19 | 37.36311 | 141.24116 | 37838 ft | 381 kts | 220° |
| 2026-04-27 01:20 | 37.32568 | 141.19404 | 37836 ft | 381 kts | 220° |
| 2026-04-27 01:20 | 37.28816 | 141.14681 | 37839 ft | 382 kts | 220° |
| 2026-04-27 01:21 | 37.25059 | 141.09956 | 37838 ft | 382 kts | 220° |
| 2026-04-27 01:21 | 37.21300 | 141.05235 | 37833 ft | 383 kts | 220° |
| 2026-04-27 01:22 | 37.17549 | 141.00531 | 37826 ft | 384 kts | 220° |
| 2026-04-27 01:22 | 37.13741 | 140.95762 | 37832 ft | 385 kts | 220° |
| 2026-04-27 01:23 | 37.10327 | 140.90885 | 37826 ft | 390 kts | 225° |
| 2026-04-27 01:23 | 37.06917 | 140.85514 | 37828 ft | 392 kts | 225° |
| 2026-04-27 01:24 | 37.04109 | 140.81065 | 37825 ft | 393 kts | 225° |
| 2026-04-27 01:24 | 37.00152 | 140.74838 | 37821 ft | 394 kts | 225° |
| 2026-04-27 01:25 | 36.96722 | 140.69466 | 37826 ft | 396 kts | 225° |
| 2026-04-27 01:25 | 36.93831 | 140.64948 | 37818 ft | 397 kts | 225° |
| 2026-04-27 01:26 | 36.90372 | 140.59552 | 37821 ft | 399 kts | 225° |
| 2026-04-27 01:26 | 36.86917 | 140.54171 | 37812 ft | 401 kts | 225° |
| 2026-04-27 01:27 | 36.83399 | 140.48701 | 37813 ft | 402 kts | 225° |
| 2026-04-27 01:27 | 36.79885 | 140.43246 | 37810 ft | 404 kts | 225° |
| 2026-04-27 01:28 | 36.76359 | 140.37780 | 37804 ft | 405 kts | 225° |
| 2026-04-27 01:28 | 36.72882 | 140.32223 | 37802 ft | 409 kts | 229° |
| 2026-04-27 01:29 | 36.69719 | 140.26344 | 37801 ft | 413 kts | 231° |
| 2026-04-27 01:29 | 36.66577 | 140.20278 | 37804 ft | 415 kts | 231° |
| 2026-04-27 01:30 | 36.63436 | 140.14244 | 37805 ft | 416 kts | 231° |
| 2026-04-27 01:30 | 36.60270 | 140.08201 | 37814 ft | 418 kts | 231° |
| 2026-04-27 01:31 | 36.57078 | 140.02146 | 37820 ft | 419 kts | 231° |
| 2026-04-27 01:31 | 36.53869 | 139.96096 | 37827 ft | 419 kts | 231° |
| 2026-04-27 01:32 | 36.50845 | 139.90399 | 37826 ft | 420 kts | 231° |
| 2026-04-27 01:32 | 36.47569 | 139.84399 | 37829 ft | 419 kts | 229° |
| 2026-04-27 01:33 | 36.44143 | 139.78531 | 37835 ft | 419 kts | 229° |
| 2026-04-27 01:33 | 36.40698 | 139.72690 | 37839 ft | 420 kts | 229° |
| 2026-04-27 01:34 | 36.37264 | 139.66829 | 37842 ft | 420 kts | 230° |
| 2026-04-27 01:34 | 36.33847 | 139.60952 | 37844 ft | 420 kts | 230° |
| 2026-04-27 01:35 | 36.30426 | 139.55067 | 37853 ft | 420 kts | 230° |
| 2026-04-27 01:35 | 36.27004 | 139.49189 | 37853 ft | 421 kts | 230° |
| 2026-04-27 01:36 | 36.23570 | 139.43302 | 37857 ft | 421 kts | 230° |
| 2026-04-27 01:36 | 36.20129 | 139.37415 | 37864 ft | 422 kts | 230° |
| 2026-04-27 01:37 | 36.16702 | 139.31524 | 37858 ft | 422 kts | 233° |
| 2026-04-27 01:37 | 36.13893 | 139.25070 | 37864 ft | 429 kts | 240° |
| 2026-04-27 01:38 | 36.11452 | 139.18332 | 37868 ft | 429 kts | 242° |
| 2026-04-27 01:38 | 36.09015 | 139.11590 | 37868 ft | 429 kts | 241° |
| 2026-04-27 01:39 | 36.06543 | 139.04878 | 37860 ft | 429 kts | 241° |
| 2026-04-27 01:39 | 36.04053 | 138.98178 | 37853 ft | 429 kts | 241° |
| 2026-04-27 01:40 | 36.01558 | 138.91489 | 37850 ft | 429 kts | 241° |
| 2026-04-27 01:40 | 35.99050 | 138.84814 | 37853 ft | 427 kts | 241° |
| 2026-04-27 01:41 | 35.96543 | 138.78173 | 37852 ft | 427 kts | 241° |
| 2026-04-27 01:41 | 35.94043 | 138.71548 | 37882 ft | 428 kts | 241° |
| 2026-04-27 01:42 | 35.91527 | 138.64890 | 37859 ft | 428 kts | 242° |
| 2026-04-27 01:42 | 35.88988 | 138.58192 | 37857 ft | 427 kts | 241° |
| 2026-04-27 01:43 | 35.86475 | 138.51609 | 37853 ft | 427 kts | 242° |
| 2026-04-27 01:43 | 35.83945 | 138.44988 | 37849 ft | 427 kts | 242° |
| 2026-04-27 01:44 | 35.81413 | 138.38366 | 37849 ft | 427 kts | 242° |
| 2026-04-27 01:44 | 35.78876 | 138.31744 | 37849 ft | 427 kts | 242° |
| 2026-04-27 01:45 | 35.76331 | 138.25135 | 37834 ft | 429 kts | 242° |
| 2026-04-27 01:45 | 35.73786 | 138.18522 | 37834 ft | 425 kts | 241° |
| 2026-04-27 01:46 | 35.71254 | 138.11960 | 37846 ft | 426 kts | 242° |
| 2026-04-27 01:46 | 35.68707 | 138.05370 | 37848 ft | 427 kts | 242° |
| 2026-04-27 01:47 | 35.66187 | 137.98747 | 37851 ft | 428 kts | 243° |
| 2026-04-27 01:47 | 35.63770 | 137.92070 | 37847 ft | 428 kts | 243° |
| 2026-04-27 01:48 | 35.61368 | 137.85374 | 37836 ft | 428 kts | 244° |
| 2026-04-27 01:48 | 35.58943 | 137.78679 | 37842 ft | 429 kts | 243° |
| 2026-04-27 01:49 | 35.56466 | 137.72075 | 37848 ft | 428 kts | 243° |
| 2026-04-27 01:49 | 35.53957 | 137.65449 | 37832 ft | 428 kts | 243° |
| 2026-04-27 01:50 | 35.51447 | 137.58820 | 37841 ft | 429 kts | 243° |
| 2026-04-27 01:50 | 35.48916 | 137.52196 | 37829 ft | 427 kts | 241° |
| 2026-04-27 01:51 | 35.45561 | 137.46248 | 37826 ft | 424 kts | 224° |
| 2026-04-27 01:51 | 35.40755 | 137.42085 | 37828 ft | 426 kts | 210° |
| 2026-04-27 01:52 | 35.35474 | 137.38739 | 37833 ft | 428 kts | 209° |
| 2026-04-27 01:52 | 35.30206 | 137.35374 | 37828 ft | 427 kts | 210° |
| 2026-04-27 01:53 | 35.24973 | 137.31918 | 37830 ft | 426 kts | 210° |
| 2026-04-27 01:53 | 35.19773 | 137.28445 | 37836 ft | 426 kts | 211° |
| 2026-04-27 01:54 | 35.14566 | 137.24966 | 37834 ft | 427 kts | 211° |
| 2026-04-27 01:54 | 35.09430 | 137.21546 | 37823 ft | 426 kts | 211° |
| 2026-04-27 01:55 | 35.05113 | 137.18677 | 37828 ft | 425 kts | 211° |
| 2026-04-27 01:56 | 35.01581 | 137.16330 | 37820 ft | 425 kts | 211° |
| 2026-04-27 01:57 | 34.96398 | 137.12889 | 37819 ft | 425 kts | 211° |
| 2026-04-27 01:57 | 34.91190 | 137.09436 | 37824 ft | 425 kts | 211° |
| 2026-04-27 01:58 | 34.85989 | 137.05993 | 37824 ft | 426 kts | 211° |
| 2026-04-27 01:58 | 34.80870 | 137.02609 | 37824 ft | 426 kts | 211° |
| 2026-04-27 01:59 | 34.75662 | 136.99170 | 37827 ft | 426 kts | 211° |
| 2026-04-27 01:59 | 34.70461 | 136.95726 | 37828 ft | 425 kts | 213° |
| 2026-04-27 02:00 | 34.65621 | 136.91697 | 37821 ft | 424 kts | 219° |
| 2026-04-27 02:00 | 34.60964 | 136.87308 | 37821 ft | 424 kts | 220° |
| 2026-04-27 02:01 | 34.56271 | 136.82878 | 37822 ft | 425 kts | 220° |
| 2026-04-27 02:01 | 34.51745 | 136.78653 | 37820 ft | 425 kts | 219° |
| 2026-04-27 02:02 | 34.47047 | 136.74295 | 37816 ft | 425 kts | 219° |
| 2026-04-27 02:02 | 34.42379 | 136.69974 | 37815 ft | 425 kts | 220° |
| 2026-04-27 02:03 | 34.37672 | 136.65623 | 37812 ft | 426 kts | 220° |
| 2026-04-27 02:03 | 34.32962 | 136.61276 | 37811 ft | 426 kts | 220° |
| 2026-04-27 02:04 | 34.28262 | 136.56919 | 37812 ft | 426 kts | 220° |
| 2026-04-27 02:04 | 34.23930 | 136.52864 | 37821 ft | 427 kts | 220° |
| 2026-04-27 02:05 | 34.19239 | 136.48466 | 37815 ft | 426 kts | 220° |
| 2026-04-27 02:05 | 34.14557 | 136.44081 | 37809 ft | 426 kts | 220° |
| 2026-04-27 02:06 | 34.09872 | 136.39701 | 37812 ft | 426 kts | 220° |
| 2026-04-27 02:06 | 34.05185 | 136.35334 | 37810 ft | 426 kts | 221° |
| 2026-04-27 02:07 | 34.01283 | 136.31701 | 37819 ft | 426 kts | 221° |
| 2026-04-27 02:07 | 33.95886 | 136.26679 | 37816 ft | 425 kts | 221° |
| 2026-04-27 02:08 | 33.91195 | 136.22319 | 37816 ft | 426 kts | 221° |
| 2026-04-27 02:08 | 33.86600 | 136.18054 | 37485 ft | 429 kts | 221° |
| 2026-04-27 02:09 | 33.85012 | 136.16581 | 37244 ft | 425 kts | 221° |
| 2026-04-27 02:09 | 33.82711 | 136.14451 | 36804 ft | 421 kts | 221° |
| 2026-04-27 02:09 | 33.80384 | 136.12295 | 36294 ft | 422 kts | 221° |
| 2026-04-27 02:09 | 33.78058 | 136.10138 | 35802 ft | 423 kts | 221° |
| 2026-04-27 02:10 | 33.75730 | 136.07977 | 35312 ft | 424 kts | 221° |
| 2026-04-27 02:10 | 33.73386 | 136.05801 | 34826 ft | 425 kts | 221° |
| 2026-04-27 02:10 | 33.71043 | 136.03627 | 34331 ft | 427 kts | 221° |
| 2026-04-27 02:10 | 33.68690 | 136.01446 | 33847 ft | 428 kts | 221° |
| 2026-04-27 02:11 | 33.66329 | 135.99259 | 33285 ft | 429 kts | 221° |
| 2026-04-27 02:11 | 33.63968 | 135.97075 | 32782 ft | 429 kts | 221° |
| 2026-04-27 02:11 | 33.61596 | 135.94881 | 32278 ft | 430 kts | 221° |
| 2026-04-27 02:11 | 33.59218 | 135.92683 | 31758 ft | 432 kts | 222° |
| 2026-04-27 02:12 | 33.56839 | 135.90486 | 31233 ft | 432 kts | 222° |
| 2026-04-27 02:12 | 33.54460 | 135.88291 | 30700 ft | 432 kts | 222° |
| 2026-04-27 02:12 | 33.52102 | 135.86065 | 30172 ft | 431 kts | 224° |
| 2026-04-27 02:12 | 33.49908 | 135.83628 | 29563 ft | 429 kts | 230° |
| 2026-04-27 02:13 | 33.48042 | 135.80851 | 28925 ft | 427 kts | 239° |
| 2026-04-27 02:13 | 33.46606 | 135.77757 | 28324 ft | 425 kts | 248° |
| 2026-04-27 02:13 | 33.45628 | 135.74416 | 27730 ft | 426 kts | 256° |
| 2026-04-27 02:13 | 33.45119 | 135.70918 | 27138 ft | 428 kts | 264° |
| 2026-04-27 02:14 | 33.45040 | 135.67394 | 26566 ft | 431 kts | 270° |
| 2026-04-27 02:14 | 33.45187 | 135.63760 | 25957 ft | 432 kts | 272° |
| 2026-04-27 02:14 | 33.45404 | 135.60177 | 25361 ft | 429 kts | 273° |
| 2026-04-27 02:14 | 33.45620 | 135.56676 | 24786 ft | 426 kts | 272° |
| 2026-04-27 02:15 | 33.45818 | 135.53157 | 24203 ft | 422 kts | 272° |
| 2026-04-27 02:15 | 33.45994 | 135.49670 | 23627 ft | 418 kts | 272° |
| 2026-04-27 02:15 | 33.46154 | 135.46205 | 22980 ft | 415 kts | 272° |
| 2026-04-27 02:15 | 33.46304 | 135.42763 | 22352 ft | 412 kts | 272° |
| 2026-04-27 02:16 | 33.46463 | 135.39308 | 21759 ft | 408 kts | 273° |
| 2026-04-27 02:16 | 33.46849 | 135.36001 | 21186 ft | 407 kts | 281° |
| 2026-04-27 02:16 | 33.47780 | 135.32805 | 20605 ft | 408 kts | 293° |
| 2026-04-27 02:16 | 33.49349 | 135.29976 | 20043 ft | 411 kts | 307° |
| 2026-04-27 02:17 | 33.51379 | 135.27546 | 19472 ft | 412 kts | 314° |
| 2026-04-27 02:17 | 33.53558 | 135.25330 | 18893 ft | 411 kts | 316° |
| 2026-04-27 02:17 | 33.55721 | 135.23222 | 18359 ft | 407 kts | 316° |
| 2026-04-27 02:17 | 33.57904 | 135.21080 | 17765 ft | 403 kts | 316° |
| 2026-04-27 02:18 | 33.60041 | 135.18942 | 17185 ft | 398 kts | 316° |
| 2026-04-27 02:18 | 33.62146 | 135.16799 | 16654 ft | 395 kts | 315° |
| 2026-04-27 02:18 | 33.64221 | 135.14657 | 16122 ft | 390 kts | 315° |
| 2026-04-27 02:18 | 33.66036 | 135.12288 | 15612 ft | 383 kts | 303° |
| 2026-04-27 02:19 | 33.67413 | 135.09582 | 15122 ft | 378 kts | 296° |
| 2026-04-27 02:19 | 33.68598 | 135.06781 | 14644 ft | 375 kts | 294° |
| 2026-04-27 02:19 | 33.69724 | 135.03966 | 14163 ft | 373 kts | 294° |
| 2026-04-27 02:19 | 33.70842 | 135.01169 | 13686 ft | 370 kts | 295° |
| 2026-04-27 02:20 | 33.71966 | 134.98391 | 13163 ft | 368 kts | 295° |
| 2026-04-27 02:20 | 33.73093 | 134.95643 | 12700 ft | 367 kts | 295° |
| 2026-04-27 02:20 | 33.74227 | 134.92902 | 12267 ft | 366 kts | 296° |
| 2026-04-27 02:20 | 33.75365 | 134.90163 | 11818 ft | 365 kts | 296° |
| 2026-04-27 02:21 | 33.76492 | 134.87441 | 11363 ft | 362 kts | 295° |
| 2026-04-27 02:21 | 33.77242 | 134.84550 | 11006 ft | 363 kts | 279° |
| 2026-04-27 02:21 | 33.77429 | 134.81546 | 10827 ft | 354 kts | 272° |
| 2026-04-27 02:21 | 33.77413 | 134.78724 | 10698 ft | 321 kts | 271° |
| 2026-04-27 02:22 | 33.77354 | 134.76165 | 10584 ft | 292 kts | 270° |
| 2026-04-27 02:22 | 33.77302 | 134.73830 | 10463 ft | 267 kts | 271° |
| 2026-04-27 02:22 | 33.77265 | 134.71696 | 10366 ft | 250 kts | 272° |
| 2026-04-27 02:22 | 33.77239 | 134.69591 | 10269 ft | 250 kts | 272° |
| 2026-04-27 02:23 | 33.77219 | 134.67497 | 10166 ft | 251 kts | 272° |
| 2026-04-27 02:23 | 33.77209 | 134.65404 | 10059 ft | 250 kts | 274° |
| 2026-04-27 02:23 | 33.77473 | 134.63360 | 10008 ft | 247 kts | 290° |
| 2026-04-27 02:23 | 33.78343 | 134.61595 | 10014 ft | 246 kts | 314° |
| 2026-04-27 02:24 | 33.79663 | 134.60281 | 10022 ft | 248 kts | 323° |
| 2026-04-27 02:24 | 33.81082 | 134.59102 | 10015 ft | 249 kts | 324° |
| 2026-04-27 02:24 | 33.82518 | 134.57945 | 10010 ft | 249 kts | 324° |
| 2026-04-27 02:24 | 33.83956 | 134.56790 | 10012 ft | 248 kts | 325° |
| 2026-04-27 02:25 | 33.85315 | 134.55529 | 9994 ft | 247 kts | 313° |
| 2026-04-27 02:25 | 33.86200 | 134.53779 | 10017 ft | 247 kts | 292° |
| 2026-04-27 02:25 | 33.86756 | 134.51814 | 9997 ft | 247 kts | 289° |
| 2026-04-27 02:25 | 33.87247 | 134.49826 | 10033 ft | 250 kts | 288° |
| 2026-04-27 02:26 | 33.87730 | 134.47832 | 9992 ft | 247 kts | 288° |
| 2026-04-27 02:26 | 33.88212 | 134.45841 | 10015 ft | 248 kts | 288° |
| 2026-04-27 02:26 | 33.88680 | 134.43891 | 10038 ft | 248 kts | 288° |
| 2026-04-27 02:26 | 33.89171 | 134.41908 | 10013 ft | 245 kts | 291° |
| 2026-04-27 02:27 | 33.89987 | 134.40127 | 10027 ft | 243 kts | 306° |
| 2026-04-27 02:27 | 33.91015 | 134.38468 | 10008 ft | 243 kts | 308° |
| 2026-04-27 02:27 | 33.92063 | 134.36860 | 10002 ft | 244 kts | 308° |
| 2026-04-27 02:27 | 33.93115 | 134.35256 | 10021 ft | 244 kts | 309° |
| 2026-04-27 02:28 | 33.94258 | 134.33721 | 10004 ft | 258 kts | 322° |
| 2026-04-27 02:28 | 33.95905 | 134.32833 | 10028 ft | 266 kts | 347° |
| 2026-04-27 02:28 | 33.97769 | 134.32957 | 10026 ft | 275 kts | 13° |
| 2026-04-27 02:28 | 33.99451 | 134.34102 | 9986 ft | 285 kts | 38° |
| 2026-04-27 02:29 | 34.00804 | 134.35878 | 9954 ft | 290 kts | 46° |
| 2026-04-27 02:29 | 34.02064 | 134.37779 | 9890 ft | 290 kts | 47° |
| 2026-04-27 02:29 | 34.03323 | 134.39678 | 9841 ft | 290 kts | 47° |
| 2026-04-27 02:29 | 34.04596 | 134.41546 | 9782 ft | 287 kts | 46° |
| 2026-04-27 02:30 | 34.05878 | 134.43381 | 9713 ft | 285 kts | 45° |
| 2026-04-27 02:30 | 34.07168 | 134.45197 | 9639 ft | 284 kts | 45° |
| 2026-04-27 02:30 | 34.08459 | 134.46995 | 9578 ft | 284 kts | 45° |
| 2026-04-27 02:30 | 34.09757 | 134.48789 | 9512 ft | 283 kts | 45° |
| 2026-04-27 02:31 | 34.11056 | 134.50577 | 9447 ft | 283 kts | 44° |
| 2026-04-27 02:31 | 34.12352 | 134.52353 | 9379 ft | 283 kts | 45° |
| 2026-04-27 02:31 | 34.13650 | 134.54133 | 9318 ft | 282 kts | 45° |
| 2026-04-27 02:31 | 34.14945 | 134.55907 | 9248 ft | 282 kts | 44° |
| 2026-04-27 02:32 | 34.16223 | 134.57657 | 9190 ft | 281 kts | 44° |
| 2026-04-27 02:32 | 34.17515 | 134.59425 | 9110 ft | 281 kts | 44° |
| 2026-04-27 02:32 | 34.18810 | 134.61198 | 9069 ft | 281 kts | 44° |
| 2026-04-27 02:32 | 34.20097 | 134.62961 | 8996 ft | 279 kts | 44° |
| 2026-04-27 02:33 | 34.21377 | 134.64715 | 8931 ft | 279 kts | 44° |
| 2026-04-27 02:33 | 34.22661 | 134.66476 | 8867 ft | 278 kts | 44° |
| 2026-04-27 02:33 | 34.23938 | 134.68227 | 8801 ft | 278 kts | 44° |
| 2026-04-27 02:33 | 34.25212 | 134.69975 | 8738 ft | 277 kts | 44° |
| 2026-04-27 02:34 | 34.26187 | 134.71313 | 8689 ft | 277 kts | 44° |
| 2026-04-27 02:34 | 34.27460 | 134.73061 | 8629 ft | 276 kts | 44° |
| 2026-04-27 02:34 | 34.28725 | 134.74798 | 8551 ft | 276 kts | 44° |
| 2026-04-27 02:34 | 34.29992 | 134.76541 | 8507 ft | 276 kts | 44° |
| 2026-04-27 02:35 | 34.31256 | 134.78280 | 8442 ft | 276 kts | 44° |
| 2026-04-27 02:35 | 34.32519 | 134.80018 | 8382 ft | 275 kts | 44° |
| 2026-04-27 02:35 | 34.33779 | 134.81754 | 8323 ft | 274 kts | 44° |
| 2026-04-27 02:35 | 34.35037 | 134.83486 | 8259 ft | 274 kts | 44° |
| 2026-04-27 02:36 | 34.36286 | 134.85210 | 8186 ft | 272 kts | 44° |
| 2026-04-27 02:36 | 34.37540 | 134.86938 | 8131 ft | 273 kts | 44° |
| 2026-04-27 02:36 | 34.38791 | 134.88664 | 8079 ft | 273 kts | 44° |
| 2026-04-27 02:36 | 34.40029 | 134.90373 | 8005 ft | 271 kts | 44° |
| 2026-04-27 02:37 | 34.41275 | 134.92095 | 7946 ft | 271 kts | 44° |
| 2026-04-27 02:37 | 34.42516 | 134.93809 | 7883 ft | 270 kts | 44° |
| 2026-04-27 02:37 | 34.43747 | 134.95512 | 7821 ft | 270 kts | 44° |
| 2026-04-27 02:37 | 34.44981 | 134.97225 | 7757 ft | 269 kts | 45° |
| 2026-04-27 02:38 | 34.46189 | 134.98967 | 7589 ft | 270 kts | 46° |
| 2026-04-27 02:38 | 34.47212 | 135.00464 | 7420 ft | 268 kts | 46° |
| 2026-04-27 02:38 | 34.48379 | 135.02177 | 7249 ft | 267 kts | 46° |
| 2026-04-27 02:38 | 34.49498 | 135.03816 | 7070 ft | 266 kts | 46° |
| 2026-04-27 02:39 | 34.50656 | 135.05513 | 6898 ft | 264 kts | 46° |
| 2026-04-27 02:39 | 34.51825 | 135.07223 | 6715 ft | 264 kts | 46° |
| 2026-04-27 02:39 | 34.52991 | 135.08929 | 6530 ft | 262 kts | 46° |
| 2026-04-27 02:39 | 34.54153 | 135.10630 | 6353 ft | 260 kts | 46° |
| 2026-04-27 02:40 | 34.55306 | 135.12318 | 6175 ft | 259 kts | 46° |
| 2026-04-27 02:40 | 34.56451 | 135.14001 | 5987 ft | 258 kts | 45° |
| 2026-04-27 02:40 | 34.57588 | 135.15676 | 5821 ft | 257 kts | 46° |
| 2026-04-27 02:40 | 34.58714 | 135.17335 | 5690 ft | 255 kts | 46° |
| 2026-04-27 02:41 | 34.59814 | 135.19023 | 5588 ft | 256 kts | 51° |
| 2026-04-27 02:41 | 34.60526 | 135.21031 | 5452 ft | 265 kts | 74° |
| 2026-04-27 02:41 | 34.60679 | 135.23278 | 5307 ft | 270 kts | 84° |
| 2026-04-27 02:41 | 34.60663 | 135.25532 | 5200 ft | 262 kts | 86° |
| 2026-04-27 02:42 | 34.60612 | 135.27648 | 5096 ft | 240 kts | 86° |
| 2026-04-27 02:42 | 34.60560 | 135.29586 | 4971 ft | 220 kts | 85° |
| 2026-04-27 02:42 | 34.60515 | 135.31370 | 4850 ft | 205 kts | 85° |
| 2026-04-27 02:42 | 34.60477 | 135.33048 | 4719 ft | 195 kts | 84° |
| 2026-04-27 02:43 | 34.60434 | 135.34694 | 4473 ft | 196 kts | 88° |
| 2026-04-27 02:43 | 34.60039 | 135.36301 | 4043 ft | 204 kts | 119° |
| 2026-04-27 02:43 | 34.58925 | 135.37324 | 3689 ft | 204 kts | 165° |
| 2026-04-27 02:43 | 34.57528 | 135.37514 | 3502 ft | 209 kts | 180° |
| 2026-04-27 02:44 | 34.56082 | 135.37346 | 3075 ft | 204 kts | 199° |
| 2026-04-27 02:44 | 34.54770 | 135.36834 | 2755 ft | 201 kts | 203° |
| 2026-04-27 02:44 | 34.53538 | 135.36120 | 2385 ft | 194 kts | 225° |
| 2026-04-27 02:44 | 34.52592 | 135.35019 | 2148 ft | 187 kts | 230° |
| 2026-04-27 02:45 | 34.51714 | 135.33905 | 1786 ft | 177 kts | 235° |
| 2026-04-27 02:45 | 34.50942 | 135.32748 | 1628 ft | 175 kts | 237° |
| 2026-04-27 02:45 | 34.50229 | 135.31675 | 1571 ft | 163 kts | 236° |
| 2026-04-27 02:45 | 34.49528 | 135.30625 | 1504 ft | 161 kts | 236° |
| 2026-04-27 02:46 | 34.48836 | 135.29579 | 1234 ft | 157 kts | 236° |
| 2026-04-27 02:46 | 34.48151 | 135.28552 | 1041 ft | 158 kts | 236° |
| 2026-04-27 02:46 | 34.47460 | 135.27518 | 774 ft | 157 kts | 237° |
| 2026-04-27 02:46 | 34.46788 | 135.26503 | 558 ft | 153 kts | 237° |
| 2026-04-27 02:47 | 34.46128 | 135.25497 | 380 ft | 154 kts | 233° |
| 2026-04-27 02:47 | 34.45449 | 135.24489 | 232 ft | 155 kts | 234° |
| 2026-04-27 02:47 | 34.44784 | 135.23480 | 56 ft | 152 kts | 231° |
| 2026-04-27 02:47 | 34.44203 | 135.22628 | 37 ft | 105 kts | 232° |
| 2026-04-27 02:48 | 34.43867 | 135.22126 | 38 ft | 49 kts | 231° |
| 2026-04-27 02:48 | 34.43694 | 135.21869 | 39 ft | 29 kts | 231° |
| 2026-04-27 02:48 | 34.43552 | 135.21735 | 40 ft | 19 kts | 204° |
| 2026-04-27 02:48 | 34.43434 | 135.21676 | 38 ft | 18 kts | 202° |
| 2026-04-27 02:49 | 34.43393 | 135.21680 | 37 ft | 4 kts | 143° |
| 2026-04-27 02:49 | 34.43387 | 135.21713 | 36 ft | 5 kts | 93° |
| 2026-04-27 02:49 | 34.43397 | 135.21760 | 35 ft | 7 kts | 65° |
| 2026-04-27 02:49 | 34.43429 | 135.21814 | 36 ft | 9 kts | 51° |
| 2026-04-27 02:50 | 34.43473 | 135.21879 | 36 ft | 11 kts | 51° |
| 2026-04-27 02:50 | 34.43526 | 135.21958 | 36 ft | 13 kts | 51° |
| 2026-04-27 02:50 | 34.43586 | 135.22050 | 36 ft | 15 kts | 51° |
| 2026-04-27 02:50 | 34.43654 | 135.22151 | 36 ft | 16 kts | 50° |
| 2026-04-27 02:51 | 34.43732 | 135.22265 | 36 ft | 18 kts | 50° |
| 2026-04-27 02:51 | 34.43787 | 135.22374 | 36 ft | 11 kts | 85° |
| 2026-04-27 02:51 | 34.43748 | 135.22447 | 35 ft | 11 kts | 137° |
| 2026-04-27 02:51 | 34.43680 | 135.22515 | 36 ft | 14 kts | 141° |
| 2026-04-27 02:52 | 34.43598 | 135.22595 | 36 ft | 16 kts | 141° |
| 2026-04-27 02:52 | 34.43507 | 135.22686 | 35 ft | 18 kts | 141° |
| 2026-04-27 02:52 | 34.43423 | 135.22755 | 36 ft | 10 kts | 162° |
| 2026-04-27 02:52 | 34.43377 | 135.22756 | 36 ft | 3 kts | 199° |
| 2026-04-27 02:53 | 34.43362 | 135.22739 | 36 ft | 2 kts | 232° |
| 2026-04-27 02:53 | 34.43361 | 135.22726 | 36 ft | 2 kts | 263° |
| 2026-04-27 02:53 | 34.43364 | 135.22714 | 36 ft | 3 kts | 288° |
| 2026-04-27 02:53 | 34.43375 | 135.22667 | 36 ft | 4 kts | 270° |
| 2026-04-27 02:54 | 34.43368 | 135.22653 | 36 ft | 3 kts | 236° |
| 2026-04-27 02:54 | 34.43345 | 135.22618 | 36 ft | 5 kts | 231° |
| 2026-04-27 02:54 | 34.43338 | 135.22608 | 36 ft | 2 kts | 231° |
| 2026-04-27 02:54 | 34.43333 | 135.22600 | 36 ft | 0 kts | 231° |